<?xml version="1.0" encoding="UTF-8" standalone="no" ?>
<gpx xmlns="http://www.topografix.com/GPX/1/1" xmlns:xsi="http://www.w3.org/2001/XMLSchema-instance" xsi:schemaLocation="http://www.topografix.com/GPX/1/1 http://www.topografix.com/GPX/1/1/gpx.xsd" version="1.1" creator="VisuGPX - https://www.visugpx.com">
  <metadata>
    <name>Grand St Jean &amp; ancien canal du Verdon</name>
    <desc><![CDATA[Boucle de 14,5 km, à plat...]]></desc>
  </metadata>
  <trk>
    <name><![CDATA[2015-05-20 14:47:18]]></name>
    <trkseg>
      <trkpt lat="43.59877" lon="5.37213">
        <ele>279.78</ele>
        <time>2015-05-20T07:10:07Z</time>
      </trkpt>
      <trkpt lat="43.59877" lon="5.37213">
        <ele>279.78</ele>
        <time>2015-05-20T07:10:08Z</time>
      </trkpt>
      <trkpt lat="43.59877" lon="5.37213">
        <ele>279.78</ele>
        <time>2015-05-20T07:10:09Z</time>
      </trkpt>
      <trkpt lat="43.59876" lon="5.3721">
        <ele>282.84</ele>
        <time>2015-05-20T07:10:11Z</time>
      </trkpt>
      <trkpt lat="43.59875" lon="5.37209">
        <ele>287.24</ele>
        <time>2015-05-20T07:10:13Z</time>
      </trkpt>
      <trkpt lat="43.59874" lon="5.37208">
        <ele>290.94</ele>
        <time>2015-05-20T07:10:16Z</time>
      </trkpt>
      <trkpt lat="43.59877" lon="5.37209">
        <ele>293.97</ele>
        <time>2015-05-20T07:10:23Z</time>
      </trkpt>
      <trkpt lat="43.59878" lon="5.37211">
        <ele>295.39</ele>
        <time>2015-05-20T07:10:41Z</time>
      </trkpt>
      <trkpt lat="43.59878" lon="5.37211">
        <ele>294.94</ele>
        <time>2015-05-20T07:10:52Z</time>
      </trkpt>
      <trkpt lat="43.59878" lon="5.37212">
        <ele>294.96</ele>
        <time>2015-05-20T07:11:09Z</time>
      </trkpt>
      <trkpt lat="43.59878" lon="5.37211">
        <ele>294.51</ele>
        <time>2015-05-20T07:11:28Z</time>
      </trkpt>
      <trkpt lat="43.59875" lon="5.37211">
        <ele>294.94</ele>
        <time>2015-05-20T07:11:48Z</time>
      </trkpt>
      <trkpt lat="43.59874" lon="5.37214">
        <ele>294.78</ele>
        <time>2015-05-20T07:12:02Z</time>
      </trkpt>
      <trkpt lat="43.59873" lon="5.37216">
        <ele>295.04</ele>
        <time>2015-05-20T07:12:14Z</time>
      </trkpt>
      <trkpt lat="43.59872" lon="5.37215">
        <ele>294.75</ele>
        <time>2015-05-20T07:12:27Z</time>
      </trkpt>
      <trkpt lat="43.59877" lon="5.37206">
        <ele>294.93</ele>
        <time>2015-05-20T07:12:39Z</time>
      </trkpt>
      <trkpt lat="43.59876" lon="5.37207">
        <ele>294.56</ele>
        <time>2015-05-20T07:12:51Z</time>
      </trkpt>
      <trkpt lat="43.59877" lon="5.37208">
        <ele>294.75</ele>
        <time>2015-05-20T07:13:11Z</time>
      </trkpt>
      <trkpt lat="43.59877" lon="5.3721">
        <ele>294.56</ele>
        <time>2015-05-20T07:13:53Z</time>
      </trkpt>
      <trkpt lat="43.59873" lon="5.37219">
        <ele>294.33</ele>
        <time>2015-05-20T07:14:07Z</time>
      </trkpt>
      <trkpt lat="43.59873" lon="5.37221">
        <ele>294.69</ele>
        <time>2015-05-20T07:14:27Z</time>
      </trkpt>
      <trkpt lat="43.59874" lon="5.37223">
        <ele>294.33</ele>
        <time>2015-05-20T07:14:44Z</time>
      </trkpt>
      <trkpt lat="43.59874" lon="5.37223">
        <ele>294.25</ele>
        <time>2015-05-20T07:15:13Z</time>
      </trkpt>
      <trkpt lat="43.59874" lon="5.37223">
        <ele>293.89</ele>
        <time>2015-05-20T07:15:32Z</time>
      </trkpt>
      <trkpt lat="43.59875" lon="5.37219">
        <ele>294.2</ele>
        <time>2015-05-20T07:15:52Z</time>
      </trkpt>
      <trkpt lat="43.59877" lon="5.37223">
        <ele>293.73</ele>
        <time>2015-05-20T07:16:07Z</time>
      </trkpt>
      <trkpt lat="43.59877" lon="5.37224">
        <ele>293.77</ele>
        <time>2015-05-20T07:16:09Z</time>
      </trkpt>
      <trkpt lat="43.59873" lon="5.37245">
        <ele>293.99</ele>
        <time>2015-05-20T07:16:26Z</time>
      </trkpt>
      <trkpt lat="43.59874" lon="5.37246">
        <ele>294</ele>
        <time>2015-05-20T07:16:39Z</time>
      </trkpt>
      <trkpt lat="43.59877" lon="5.37252">
        <ele>294.41</ele>
        <time>2015-05-20T07:16:56Z</time>
      </trkpt>
      <trkpt lat="43.59877" lon="5.37255">
        <ele>294.82</ele>
        <time>2015-05-20T07:17:03Z</time>
      </trkpt>
      <trkpt lat="43.59882" lon="5.37275">
        <ele>295</ele>
        <time>2015-05-20T07:17:21Z</time>
      </trkpt>
      <trkpt lat="43.59884" lon="5.37283">
        <ele>295.29</ele>
        <time>2015-05-20T07:17:26Z</time>
      </trkpt>
      <trkpt lat="43.59889" lon="5.37312">
        <ele>295.99</ele>
        <time>2015-05-20T07:17:47Z</time>
      </trkpt>
      <trkpt lat="43.59891" lon="5.37332">
        <ele>295.88</ele>
        <time>2015-05-20T07:18:01Z</time>
      </trkpt>
      <trkpt lat="43.59891" lon="5.37352">
        <ele>295.51</ele>
        <time>2015-05-20T07:18:15Z</time>
      </trkpt>
      <trkpt lat="43.59885" lon="5.37373">
        <ele>295.99</ele>
        <time>2015-05-20T07:18:33Z</time>
      </trkpt>
      <trkpt lat="43.59882" lon="5.37381">
        <ele>296.06</ele>
        <time>2015-05-20T07:18:39Z</time>
      </trkpt>
      <trkpt lat="43.59876" lon="5.37404">
        <ele>295.82</ele>
        <time>2015-05-20T07:18:55Z</time>
      </trkpt>
      <trkpt lat="43.59871" lon="5.37424">
        <ele>295.99</ele>
        <time>2015-05-20T07:19:10Z</time>
      </trkpt>
      <trkpt lat="43.59865" lon="5.37446">
        <ele>296.14</ele>
        <time>2015-05-20T07:19:27Z</time>
      </trkpt>
      <trkpt lat="43.59864" lon="5.37451">
        <ele>296.33</ele>
        <time>2015-05-20T07:19:30Z</time>
      </trkpt>
      <trkpt lat="43.59861" lon="5.37478">
        <ele>296.97</ele>
        <time>2015-05-20T07:19:49Z</time>
      </trkpt>
      <trkpt lat="43.59859" lon="5.37493">
        <ele>297.63</ele>
        <time>2015-05-20T07:20:05Z</time>
      </trkpt>
      <trkpt lat="43.59857" lon="5.37501">
        <ele>297.7</ele>
        <time>2015-05-20T07:20:13Z</time>
      </trkpt>
      <trkpt lat="43.59855" lon="5.37506">
        <ele>297.64</ele>
        <time>2015-05-20T07:20:17Z</time>
      </trkpt>
      <trkpt lat="43.59853" lon="5.37526">
        <ele>298.02</ele>
        <time>2015-05-20T07:20:31Z</time>
      </trkpt>
      <trkpt lat="43.59859" lon="5.37536">
        <ele>298.21</ele>
        <time>2015-05-20T07:20:44Z</time>
      </trkpt>
      <trkpt lat="43.59871" lon="5.37545">
        <ele>298.25</ele>
        <time>2015-05-20T07:20:59Z</time>
      </trkpt>
      <trkpt lat="43.59876" lon="5.37559">
        <ele>298.5</ele>
        <time>2015-05-20T07:21:12Z</time>
      </trkpt>
      <trkpt lat="43.59882" lon="5.37571">
        <ele>299.28</ele>
        <time>2015-05-20T07:21:25Z</time>
      </trkpt>
      <trkpt lat="43.59885" lon="5.37586">
        <ele>299.86</ele>
        <time>2015-05-20T07:21:40Z</time>
      </trkpt>
      <trkpt lat="43.59888" lon="5.37604">
        <ele>299.13</ele>
        <time>2015-05-20T07:21:57Z</time>
      </trkpt>
      <trkpt lat="43.5989" lon="5.37615">
        <ele>300.33</ele>
        <time>2015-05-20T07:22:12Z</time>
      </trkpt>
      <trkpt lat="43.59891" lon="5.37621">
        <ele>300.77</ele>
        <time>2015-05-20T07:22:18Z</time>
      </trkpt>
      <trkpt lat="43.59894" lon="5.37628">
        <ele>301.09</ele>
        <time>2015-05-20T07:22:24Z</time>
      </trkpt>
      <trkpt lat="43.59896" lon="5.37645">
        <ele>301.18</ele>
        <time>2015-05-20T07:22:39Z</time>
      </trkpt>
      <trkpt lat="43.59903" lon="5.37655">
        <ele>301.78</ele>
        <time>2015-05-20T07:22:57Z</time>
      </trkpt>
      <trkpt lat="43.59911" lon="5.37664">
        <ele>301.96</ele>
        <time>2015-05-20T07:23:12Z</time>
      </trkpt>
      <trkpt lat="43.59915" lon="5.37661">
        <ele>301.91</ele>
        <time>2015-05-20T07:23:21Z</time>
      </trkpt>
      <trkpt lat="43.59919" lon="5.37658">
        <ele>301.98</ele>
        <time>2015-05-20T07:23:26Z</time>
      </trkpt>
      <trkpt lat="43.59935" lon="5.37645">
        <ele>302.38</ele>
        <time>2015-05-20T07:23:43Z</time>
      </trkpt>
      <trkpt lat="43.59951" lon="5.37633">
        <ele>301.82</ele>
        <time>2015-05-20T07:23:59Z</time>
      </trkpt>
      <trkpt lat="43.59958" lon="5.37637">
        <ele>301.72</ele>
        <time>2015-05-20T07:24:11Z</time>
      </trkpt>
      <trkpt lat="43.59964" lon="5.37646">
        <ele>302</ele>
        <time>2015-05-20T07:24:25Z</time>
      </trkpt>
      <trkpt lat="43.59971" lon="5.37655">
        <ele>301.81</ele>
        <time>2015-05-20T07:24:35Z</time>
      </trkpt>
      <trkpt lat="43.59987" lon="5.37673">
        <ele>302.25</ele>
        <time>2015-05-20T07:24:53Z</time>
      </trkpt>
      <trkpt lat="43.60006" lon="5.37692">
        <ele>302.5</ele>
        <time>2015-05-20T07:25:14Z</time>
      </trkpt>
      <trkpt lat="43.60023" lon="5.37713">
        <ele>302.06</ele>
        <time>2015-05-20T07:25:35Z</time>
      </trkpt>
      <trkpt lat="43.60043" lon="5.3774">
        <ele>301.79</ele>
        <time>2015-05-20T07:25:59Z</time>
      </trkpt>
      <trkpt lat="43.60056" lon="5.37767">
        <ele>303.33</ele>
        <time>2015-05-20T07:26:21Z</time>
      </trkpt>
      <trkpt lat="43.60068" lon="5.37796">
        <ele>303.32</ele>
        <time>2015-05-20T07:26:43Z</time>
      </trkpt>
      <trkpt lat="43.60077" lon="5.37817">
        <ele>304.07</ele>
        <time>2015-05-20T07:26:59Z</time>
      </trkpt>
      <trkpt lat="43.60085" lon="5.37827">
        <ele>304.96</ele>
        <time>2015-05-20T07:27:11Z</time>
      </trkpt>
      <trkpt lat="43.60098" lon="5.3784">
        <ele>304.56</ele>
        <time>2015-05-20T07:27:27Z</time>
      </trkpt>
      <trkpt lat="43.60099" lon="5.37841">
        <ele>304.55</ele>
        <time>2015-05-20T07:27:28Z</time>
      </trkpt>
      <trkpt lat="43.60107" lon="5.37848">
        <ele>305.4</ele>
        <time>2015-05-20T07:27:39Z</time>
      </trkpt>
      <trkpt lat="43.60119" lon="5.37853">
        <ele>305.33</ele>
        <time>2015-05-20T07:27:52Z</time>
      </trkpt>
      <trkpt lat="43.60131" lon="5.37863">
        <ele>306.6</ele>
        <time>2015-05-20T07:28:06Z</time>
      </trkpt>
      <trkpt lat="43.60148" lon="5.37878">
        <ele>306.24</ele>
        <time>2015-05-20T07:28:24Z</time>
      </trkpt>
      <trkpt lat="43.60155" lon="5.37884">
        <ele>305.65</ele>
        <time>2015-05-20T07:28:32Z</time>
      </trkpt>
      <trkpt lat="43.60159" lon="5.37888">
        <ele>305.75</ele>
        <time>2015-05-20T07:28:36Z</time>
      </trkpt>
      <trkpt lat="43.60179" lon="5.37905">
        <ele>308.08</ele>
        <time>2015-05-20T07:28:54Z</time>
      </trkpt>
      <trkpt lat="43.602" lon="5.37921">
        <ele>308.72</ele>
        <time>2015-05-20T07:29:15Z</time>
      </trkpt>
      <trkpt lat="43.60215" lon="5.37937">
        <ele>309.6</ele>
        <time>2015-05-20T07:29:35Z</time>
      </trkpt>
      <trkpt lat="43.60229" lon="5.37951">
        <ele>310.58</ele>
        <time>2015-05-20T07:29:55Z</time>
      </trkpt>
      <trkpt lat="43.6023" lon="5.37952">
        <ele>310.59</ele>
        <time>2015-05-20T07:29:56Z</time>
      </trkpt>
      <trkpt lat="43.60243" lon="5.37967">
        <ele>310.77</ele>
        <time>2015-05-20T07:30:14Z</time>
      </trkpt>
      <trkpt lat="43.60255" lon="5.37981">
        <ele>311.72</ele>
        <time>2015-05-20T07:30:30Z</time>
      </trkpt>
      <trkpt lat="43.6026" lon="5.37991">
        <ele>311.99</ele>
        <time>2015-05-20T07:30:42Z</time>
      </trkpt>
      <trkpt lat="43.60266" lon="5.38016">
        <ele>312.86</ele>
        <time>2015-05-20T07:31:02Z</time>
      </trkpt>
      <trkpt lat="43.60277" lon="5.38037">
        <ele>312.94</ele>
        <time>2015-05-20T07:31:20Z</time>
      </trkpt>
      <trkpt lat="43.60284" lon="5.38046">
        <ele>313.17</ele>
        <time>2015-05-20T07:31:27Z</time>
      </trkpt>
      <trkpt lat="43.60302" lon="5.38067">
        <ele>314.02</ele>
        <time>2015-05-20T07:31:47Z</time>
      </trkpt>
      <trkpt lat="43.60314" lon="5.38081">
        <ele>314.34</ele>
        <time>2015-05-20T07:32:05Z</time>
      </trkpt>
      <trkpt lat="43.60323" lon="5.381">
        <ele>314.4</ele>
        <time>2015-05-20T07:32:22Z</time>
      </trkpt>
      <trkpt lat="43.60322" lon="5.38122">
        <ele>315.11</ele>
        <time>2015-05-20T07:32:41Z</time>
      </trkpt>
      <trkpt lat="43.60317" lon="5.38144">
        <ele>315.7</ele>
        <time>2015-05-20T07:32:57Z</time>
      </trkpt>
      <trkpt lat="43.60315" lon="5.38169">
        <ele>316.85</ele>
        <time>2015-05-20T07:33:15Z</time>
      </trkpt>
      <trkpt lat="43.60319" lon="5.38193">
        <ele>318.2</ele>
        <time>2015-05-20T07:33:34Z</time>
      </trkpt>
      <trkpt lat="43.6033" lon="5.38211">
        <ele>318.68</ele>
        <time>2015-05-20T07:33:50Z</time>
      </trkpt>
      <trkpt lat="43.60335" lon="5.38221">
        <ele>319.2</ele>
        <time>2015-05-20T07:33:58Z</time>
      </trkpt>
      <trkpt lat="43.60348" lon="5.3824">
        <ele>319.54</ele>
        <time>2015-05-20T07:34:15Z</time>
      </trkpt>
      <trkpt lat="43.60358" lon="5.38257">
        <ele>320.05</ele>
        <time>2015-05-20T07:34:31Z</time>
      </trkpt>
      <trkpt lat="43.60374" lon="5.38278">
        <ele>320.25</ele>
        <time>2015-05-20T07:34:51Z</time>
      </trkpt>
      <trkpt lat="43.60386" lon="5.38295">
        <ele>320.42</ele>
        <time>2015-05-20T07:35:08Z</time>
      </trkpt>
      <trkpt lat="43.60398" lon="5.38312">
        <ele>321.12</ele>
        <time>2015-05-20T07:35:25Z</time>
      </trkpt>
      <trkpt lat="43.60406" lon="5.38323">
        <ele>321.98</ele>
        <time>2015-05-20T07:35:39Z</time>
      </trkpt>
      <trkpt lat="43.60423" lon="5.38342">
        <ele>322.27</ele>
        <time>2015-05-20T07:35:55Z</time>
      </trkpt>
      <trkpt lat="43.60435" lon="5.3836">
        <ele>322.19</ele>
        <time>2015-05-20T07:36:13Z</time>
      </trkpt>
      <trkpt lat="43.60443" lon="5.38382">
        <ele>322.78</ele>
        <time>2015-05-20T07:36:32Z</time>
      </trkpt>
      <trkpt lat="43.60456" lon="5.38403">
        <ele>323.54</ele>
        <time>2015-05-20T07:36:51Z</time>
      </trkpt>
      <trkpt lat="43.6047" lon="5.3842">
        <ele>323.65</ele>
        <time>2015-05-20T07:37:11Z</time>
      </trkpt>
      <trkpt lat="43.60485" lon="5.38442">
        <ele>324.2</ele>
        <time>2015-05-20T07:37:29Z</time>
      </trkpt>
      <trkpt lat="43.6049" lon="5.38451">
        <ele>324.33</ele>
        <time>2015-05-20T07:37:37Z</time>
      </trkpt>
      <trkpt lat="43.60496" lon="5.38459">
        <ele>324.49</ele>
        <time>2015-05-20T07:37:45Z</time>
      </trkpt>
      <trkpt lat="43.60506" lon="5.38478">
        <ele>325.54</ele>
        <time>2015-05-20T07:38:02Z</time>
      </trkpt>
      <trkpt lat="43.60522" lon="5.38497">
        <ele>326.07</ele>
        <time>2015-05-20T07:38:22Z</time>
      </trkpt>
      <trkpt lat="43.6053" lon="5.38507">
        <ele>326.4</ele>
        <time>2015-05-20T07:38:32Z</time>
      </trkpt>
      <trkpt lat="43.60541" lon="5.38518">
        <ele>326.92</ele>
        <time>2015-05-20T07:38:47Z</time>
      </trkpt>
      <trkpt lat="43.60547" lon="5.38523">
        <ele>326.92</ele>
        <time>2015-05-20T07:39:04Z</time>
      </trkpt>
      <trkpt lat="43.60552" lon="5.38528">
        <ele>327.41</ele>
        <time>2015-05-20T07:39:24Z</time>
      </trkpt>
      <trkpt lat="43.60551" lon="5.38529">
        <ele>327.22</ele>
        <time>2015-05-20T07:39:50Z</time>
      </trkpt>
      <trkpt lat="43.60556" lon="5.38538">
        <ele>327.88</ele>
        <time>2015-05-20T07:40:05Z</time>
      </trkpt>
      <trkpt lat="43.60559" lon="5.38541">
        <ele>328.1</ele>
        <time>2015-05-20T07:40:22Z</time>
      </trkpt>
      <trkpt lat="43.6056" lon="5.38542">
        <ele>328.4</ele>
        <time>2015-05-20T07:40:40Z</time>
      </trkpt>
      <trkpt lat="43.60563" lon="5.38545">
        <ele>328.66</ele>
        <time>2015-05-20T07:41:01Z</time>
      </trkpt>
      <trkpt lat="43.60563" lon="5.38545">
        <ele>329.15</ele>
        <time>2015-05-20T07:41:29Z</time>
      </trkpt>
      <trkpt lat="43.60562" lon="5.38545">
        <ele>329.14</ele>
        <time>2015-05-20T07:41:50Z</time>
      </trkpt>
      <trkpt lat="43.60563" lon="5.38547">
        <ele>329.35</ele>
        <time>2015-05-20T07:42:10Z</time>
      </trkpt>
      <trkpt lat="43.60568" lon="5.38552">
        <ele>329.58</ele>
        <time>2015-05-20T07:42:27Z</time>
      </trkpt>
      <trkpt lat="43.60569" lon="5.38554">
        <ele>329.79</ele>
        <time>2015-05-20T07:42:29Z</time>
      </trkpt>
      <trkpt lat="43.60578" lon="5.38568">
        <ele>330.43</ele>
        <time>2015-05-20T07:42:42Z</time>
      </trkpt>
      <trkpt lat="43.60596" lon="5.38584">
        <ele>331.23</ele>
        <time>2015-05-20T07:43:01Z</time>
      </trkpt>
      <trkpt lat="43.60609" lon="5.38593">
        <ele>331.56</ele>
        <time>2015-05-20T07:43:17Z</time>
      </trkpt>
      <trkpt lat="43.60623" lon="5.38603">
        <ele>331.93</ele>
        <time>2015-05-20T07:43:34Z</time>
      </trkpt>
      <trkpt lat="43.60635" lon="5.38609">
        <ele>332.13</ele>
        <time>2015-05-20T07:43:49Z</time>
      </trkpt>
      <trkpt lat="43.60647" lon="5.38614">
        <ele>332.28</ele>
        <time>2015-05-20T07:44:01Z</time>
      </trkpt>
      <trkpt lat="43.60651" lon="5.38615">
        <ele>332.4</ele>
        <time>2015-05-20T07:44:04Z</time>
      </trkpt>
      <trkpt lat="43.60671" lon="5.38622">
        <ele>331.55</ele>
        <time>2015-05-20T07:44:23Z</time>
      </trkpt>
      <trkpt lat="43.60689" lon="5.38624">
        <ele>332.29</ele>
        <time>2015-05-20T07:44:44Z</time>
      </trkpt>
      <trkpt lat="43.60699" lon="5.38623">
        <ele>332.13</ele>
        <time>2015-05-20T07:44:53Z</time>
      </trkpt>
      <trkpt lat="43.60715" lon="5.38612">
        <ele>333.92</ele>
        <time>2015-05-20T07:45:10Z</time>
      </trkpt>
      <trkpt lat="43.60718" lon="5.38605">
        <ele>334.09</ele>
        <time>2015-05-20T07:45:15Z</time>
      </trkpt>
      <trkpt lat="43.60727" lon="5.38591">
        <ele>334.78</ele>
        <time>2015-05-20T07:45:32Z</time>
      </trkpt>
      <trkpt lat="43.60728" lon="5.38589">
        <ele>334.83</ele>
        <time>2015-05-20T07:45:34Z</time>
      </trkpt>
      <trkpt lat="43.60741" lon="5.38571">
        <ele>334.85</ele>
        <time>2015-05-20T07:45:51Z</time>
      </trkpt>
      <trkpt lat="43.60757" lon="5.38556">
        <ele>334.83</ele>
        <time>2015-05-20T07:46:09Z</time>
      </trkpt>
      <trkpt lat="43.60773" lon="5.38547">
        <ele>335.38</ele>
        <time>2015-05-20T07:46:25Z</time>
      </trkpt>
      <trkpt lat="43.60776" lon="5.38544">
        <ele>335.22</ele>
        <time>2015-05-20T07:46:28Z</time>
      </trkpt>
      <trkpt lat="43.60794" lon="5.38529">
        <ele>335.37</ele>
        <time>2015-05-20T07:46:48Z</time>
      </trkpt>
      <trkpt lat="43.60805" lon="5.3852">
        <ele>336.43</ele>
        <time>2015-05-20T07:47:00Z</time>
      </trkpt>
      <trkpt lat="43.60819" lon="5.38508">
        <ele>336.62</ele>
        <time>2015-05-20T07:47:17Z</time>
      </trkpt>
      <trkpt lat="43.60822" lon="5.38506">
        <ele>336.91</ele>
        <time>2015-05-20T07:47:31Z</time>
      </trkpt>
      <trkpt lat="43.60821" lon="5.38506">
        <ele>336.7</ele>
        <time>2015-05-20T07:47:53Z</time>
      </trkpt>
      <trkpt lat="43.6082" lon="5.38503">
        <ele>337.27</ele>
        <time>2015-05-20T07:48:09Z</time>
      </trkpt>
      <trkpt lat="43.60822" lon="5.38501">
        <ele>337.08</ele>
        <time>2015-05-20T07:48:26Z</time>
      </trkpt>
      <trkpt lat="43.60822" lon="5.38504">
        <ele>337.27</ele>
        <time>2015-05-20T07:48:43Z</time>
      </trkpt>
      <trkpt lat="43.60821" lon="5.38499">
        <ele>337.18</ele>
        <time>2015-05-20T07:49:04Z</time>
      </trkpt>
      <trkpt lat="43.60821" lon="5.38498">
        <ele>337.2</ele>
        <time>2015-05-20T07:49:05Z</time>
      </trkpt>
      <trkpt lat="43.60825" lon="5.38476">
        <ele>337.42</ele>
        <time>2015-05-20T07:49:24Z</time>
      </trkpt>
      <trkpt lat="43.60825" lon="5.38469">
        <ele>337.6</ele>
        <time>2015-05-20T07:49:40Z</time>
      </trkpt>
      <trkpt lat="43.60826" lon="5.38453">
        <ele>337</ele>
        <time>2015-05-20T07:49:58Z</time>
      </trkpt>
      <trkpt lat="43.60825" lon="5.38446">
        <ele>336.66</ele>
        <time>2015-05-20T07:50:11Z</time>
      </trkpt>
      <trkpt lat="43.60827" lon="5.38436">
        <ele>337.47</ele>
        <time>2015-05-20T07:50:31Z</time>
      </trkpt>
      <trkpt lat="43.60828" lon="5.38422">
        <ele>337.49</ele>
        <time>2015-05-20T07:50:45Z</time>
      </trkpt>
      <trkpt lat="43.60829" lon="5.38403">
        <ele>336.99</ele>
        <time>2015-05-20T07:51:02Z</time>
      </trkpt>
      <trkpt lat="43.60831" lon="5.38384">
        <ele>337.52</ele>
        <time>2015-05-20T07:51:20Z</time>
      </trkpt>
      <trkpt lat="43.60831" lon="5.38359">
        <ele>337.15</ele>
        <time>2015-05-20T07:51:40Z</time>
      </trkpt>
      <trkpt lat="43.60831" lon="5.38337">
        <ele>336.77</ele>
        <time>2015-05-20T07:51:56Z</time>
      </trkpt>
      <trkpt lat="43.60832" lon="5.38311">
        <ele>337.6</ele>
        <time>2015-05-20T07:52:14Z</time>
      </trkpt>
      <trkpt lat="43.60833" lon="5.38286">
        <ele>337.54</ele>
        <time>2015-05-20T07:52:33Z</time>
      </trkpt>
      <trkpt lat="43.60836" lon="5.38261">
        <ele>337.64</ele>
        <time>2015-05-20T07:52:51Z</time>
      </trkpt>
      <trkpt lat="43.60837" lon="5.38239">
        <ele>337.47</ele>
        <time>2015-05-20T07:53:09Z</time>
      </trkpt>
      <trkpt lat="43.60837" lon="5.38211">
        <ele>337.69</ele>
        <time>2015-05-20T07:53:29Z</time>
      </trkpt>
      <trkpt lat="43.60838" lon="5.38185">
        <ele>337.85</ele>
        <time>2015-05-20T07:53:47Z</time>
      </trkpt>
      <trkpt lat="43.60839" lon="5.3816">
        <ele>337.38</ele>
        <time>2015-05-20T07:54:06Z</time>
      </trkpt>
      <trkpt lat="43.6084" lon="5.38149">
        <ele>337.75</ele>
        <time>2015-05-20T07:54:18Z</time>
      </trkpt>
      <trkpt lat="43.6084" lon="5.38146">
        <ele>337.94</ele>
        <time>2015-05-20T07:54:20Z</time>
      </trkpt>
      <trkpt lat="43.60842" lon="5.38137">
        <ele>338.33</ele>
        <time>2015-05-20T07:54:27Z</time>
      </trkpt>
      <trkpt lat="43.60849" lon="5.38107">
        <ele>337.3</ele>
        <time>2015-05-20T07:54:47Z</time>
      </trkpt>
      <trkpt lat="43.60853" lon="5.38085">
        <ele>338</ele>
        <time>2015-05-20T07:55:03Z</time>
      </trkpt>
      <trkpt lat="43.6086" lon="5.38063">
        <ele>337.57</ele>
        <time>2015-05-20T07:55:19Z</time>
      </trkpt>
      <trkpt lat="43.60866" lon="5.3804">
        <ele>338.65</ele>
        <time>2015-05-20T07:55:35Z</time>
      </trkpt>
      <trkpt lat="43.60873" lon="5.38013">
        <ele>338.1</ele>
        <time>2015-05-20T07:55:54Z</time>
      </trkpt>
      <trkpt lat="43.60878" lon="5.37993">
        <ele>338.34</ele>
        <time>2015-05-20T07:56:09Z</time>
      </trkpt>
      <trkpt lat="43.60886" lon="5.37969">
        <ele>338.8</ele>
        <time>2015-05-20T07:56:26Z</time>
      </trkpt>
      <trkpt lat="43.60892" lon="5.37947">
        <ele>338.52</ele>
        <time>2015-05-20T07:56:41Z</time>
      </trkpt>
      <trkpt lat="43.60893" lon="5.37944">
        <ele>338.48</ele>
        <time>2015-05-20T07:56:43Z</time>
      </trkpt>
      <trkpt lat="43.60898" lon="5.37925">
        <ele>338.02</ele>
        <time>2015-05-20T07:56:56Z</time>
      </trkpt>
      <trkpt lat="43.60899" lon="5.3792">
        <ele>337.91</ele>
        <time>2015-05-20T07:57:00Z</time>
      </trkpt>
      <trkpt lat="43.60904" lon="5.37897">
        <ele>337.57</ele>
        <time>2015-05-20T07:57:17Z</time>
      </trkpt>
      <trkpt lat="43.60911" lon="5.37871">
        <ele>338.13</ele>
        <time>2015-05-20T07:57:36Z</time>
      </trkpt>
      <trkpt lat="43.60916" lon="5.37849">
        <ele>338.2</ele>
        <time>2015-05-20T07:57:54Z</time>
      </trkpt>
      <trkpt lat="43.60917" lon="5.37846">
        <ele>338.56</ele>
        <time>2015-05-20T07:58:13Z</time>
      </trkpt>
      <trkpt lat="43.60917" lon="5.37845">
        <ele>338.14</ele>
        <time>2015-05-20T07:58:31Z</time>
      </trkpt>
      <trkpt lat="43.60921" lon="5.37827">
        <ele>338.52</ele>
        <time>2015-05-20T07:58:46Z</time>
      </trkpt>
      <trkpt lat="43.60924" lon="5.37817">
        <ele>338.57</ele>
        <time>2015-05-20T07:59:01Z</time>
      </trkpt>
      <trkpt lat="43.60924" lon="5.37817">
        <ele>337.78</ele>
        <time>2015-05-20T07:59:22Z</time>
      </trkpt>
      <trkpt lat="43.60924" lon="5.37816">
        <ele>338.33</ele>
        <time>2015-05-20T07:59:49Z</time>
      </trkpt>
      <trkpt lat="43.60924" lon="5.37812">
        <ele>338.24</ele>
        <time>2015-05-20T07:59:57Z</time>
      </trkpt>
      <trkpt lat="43.60925" lon="5.37809">
        <ele>338.2</ele>
        <time>2015-05-20T07:59:59Z</time>
      </trkpt>
      <trkpt lat="43.60933" lon="5.37785">
        <ele>338.53</ele>
        <time>2015-05-20T08:00:17Z</time>
      </trkpt>
      <trkpt lat="43.60945" lon="5.37759">
        <ele>338.62</ele>
        <time>2015-05-20T08:00:38Z</time>
      </trkpt>
      <trkpt lat="43.60956" lon="5.37746">
        <ele>338.91</ele>
        <time>2015-05-20T08:00:51Z</time>
      </trkpt>
      <trkpt lat="43.6097" lon="5.3773">
        <ele>338.31</ele>
        <time>2015-05-20T08:01:07Z</time>
      </trkpt>
      <trkpt lat="43.60982" lon="5.37716">
        <ele>337.57</ele>
        <time>2015-05-20T08:01:22Z</time>
      </trkpt>
      <trkpt lat="43.60994" lon="5.37699">
        <ele>337.22</ele>
        <time>2015-05-20T08:01:38Z</time>
      </trkpt>
      <trkpt lat="43.61009" lon="5.37681">
        <ele>336.7</ele>
        <time>2015-05-20T08:01:56Z</time>
      </trkpt>
      <trkpt lat="43.61024" lon="5.37668">
        <ele>337.29</ele>
        <time>2015-05-20T08:02:12Z</time>
      </trkpt>
      <trkpt lat="43.61044" lon="5.37665">
        <ele>338.2</ele>
        <time>2015-05-20T08:02:32Z</time>
      </trkpt>
      <trkpt lat="43.61064" lon="5.37661">
        <ele>337.45</ele>
        <time>2015-05-20T08:02:51Z</time>
      </trkpt>
      <trkpt lat="43.61069" lon="5.37657">
        <ele>337.48</ele>
        <time>2015-05-20T08:02:57Z</time>
      </trkpt>
      <trkpt lat="43.61081" lon="5.37627">
        <ele>337.68</ele>
        <time>2015-05-20T08:03:22Z</time>
      </trkpt>
      <trkpt lat="43.61087" lon="5.37612">
        <ele>338.02</ele>
        <time>2015-05-20T08:03:35Z</time>
      </trkpt>
      <trkpt lat="43.61096" lon="5.37593">
        <ele>338.13</ele>
        <time>2015-05-20T08:03:50Z</time>
      </trkpt>
      <trkpt lat="43.61106" lon="5.37571">
        <ele>338.22</ele>
        <time>2015-05-20T08:04:07Z</time>
      </trkpt>
      <trkpt lat="43.61119" lon="5.3755">
        <ele>338.36</ele>
        <time>2015-05-20T08:04:27Z</time>
      </trkpt>
      <trkpt lat="43.61136" lon="5.3753">
        <ele>337.97</ele>
        <time>2015-05-20T08:04:49Z</time>
      </trkpt>
      <trkpt lat="43.6115" lon="5.37512">
        <ele>338.21</ele>
        <time>2015-05-20T08:05:07Z</time>
      </trkpt>
      <trkpt lat="43.61164" lon="5.37494">
        <ele>338.08</ele>
        <time>2015-05-20T08:05:25Z</time>
      </trkpt>
      <trkpt lat="43.61182" lon="5.37476">
        <ele>337.84</ele>
        <time>2015-05-20T08:05:47Z</time>
      </trkpt>
      <trkpt lat="43.61201" lon="5.37464">
        <ele>337.96</ele>
        <time>2015-05-20T08:06:07Z</time>
      </trkpt>
      <trkpt lat="43.61222" lon="5.37453">
        <ele>337.96</ele>
        <time>2015-05-20T08:06:29Z</time>
      </trkpt>
      <trkpt lat="43.61245" lon="5.37445">
        <ele>337.78</ele>
        <time>2015-05-20T08:06:51Z</time>
      </trkpt>
      <trkpt lat="43.61262" lon="5.37446">
        <ele>338.03</ele>
        <time>2015-05-20T08:07:09Z</time>
      </trkpt>
      <trkpt lat="43.61269" lon="5.37448">
        <ele>338.09</ele>
        <time>2015-05-20T08:07:15Z</time>
      </trkpt>
      <trkpt lat="43.61288" lon="5.37457">
        <ele>338.02</ele>
        <time>2015-05-20T08:07:34Z</time>
      </trkpt>
      <trkpt lat="43.61303" lon="5.37477">
        <ele>337.96</ele>
        <time>2015-05-20T08:07:54Z</time>
      </trkpt>
      <trkpt lat="43.61318" lon="5.37492">
        <ele>337.28</ele>
        <time>2015-05-20T08:08:12Z</time>
      </trkpt>
      <trkpt lat="43.61318" lon="5.37492">
        <ele>337.26</ele>
        <time>2015-05-20T08:08:13Z</time>
      </trkpt>
      <trkpt lat="43.61328" lon="5.37491">
        <ele>336.98</ele>
        <time>2015-05-20T08:08:24Z</time>
      </trkpt>
      <trkpt lat="43.61345" lon="5.37473">
        <ele>337.06</ele>
        <time>2015-05-20T08:08:45Z</time>
      </trkpt>
      <trkpt lat="43.6136" lon="5.37455">
        <ele>336.94</ele>
        <time>2015-05-20T08:09:03Z</time>
      </trkpt>
      <trkpt lat="43.61376" lon="5.3744">
        <ele>335.83</ele>
        <time>2015-05-20T08:09:22Z</time>
      </trkpt>
      <trkpt lat="43.61391" lon="5.3742">
        <ele>336.56</ele>
        <time>2015-05-20T08:09:42Z</time>
      </trkpt>
      <trkpt lat="43.61406" lon="5.37402">
        <ele>337.51</ele>
        <time>2015-05-20T08:10:02Z</time>
      </trkpt>
      <trkpt lat="43.61423" lon="5.37374">
        <ele>337.53</ele>
        <time>2015-05-20T08:10:25Z</time>
      </trkpt>
      <trkpt lat="43.61423" lon="5.37373">
        <ele>337.51</ele>
        <time>2015-05-20T08:10:26Z</time>
      </trkpt>
      <trkpt lat="43.61424" lon="5.37343">
        <ele>337.04</ele>
        <time>2015-05-20T08:10:46Z</time>
      </trkpt>
      <trkpt lat="43.61421" lon="5.37312">
        <ele>337.45</ele>
        <time>2015-05-20T08:11:07Z</time>
      </trkpt>
      <trkpt lat="43.61418" lon="5.37283">
        <ele>337.64</ele>
        <time>2015-05-20T08:11:27Z</time>
      </trkpt>
      <trkpt lat="43.61417" lon="5.37265">
        <ele>336.8</ele>
        <time>2015-05-20T08:11:40Z</time>
      </trkpt>
      <trkpt lat="43.6142" lon="5.37255">
        <ele>336.92</ele>
        <time>2015-05-20T08:11:54Z</time>
      </trkpt>
      <trkpt lat="43.61424" lon="5.37244">
        <ele>337.66</ele>
        <time>2015-05-20T08:12:08Z</time>
      </trkpt>
      <trkpt lat="43.61433" lon="5.37223">
        <ele>337.38</ele>
        <time>2015-05-20T08:12:27Z</time>
      </trkpt>
      <trkpt lat="43.6144" lon="5.37206">
        <ele>337.41</ele>
        <time>2015-05-20T08:12:44Z</time>
      </trkpt>
      <trkpt lat="43.61448" lon="5.37201">
        <ele>337.72</ele>
        <time>2015-05-20T08:13:01Z</time>
      </trkpt>
      <trkpt lat="43.6146" lon="5.37201">
        <ele>337.31</ele>
        <time>2015-05-20T08:13:16Z</time>
      </trkpt>
      <trkpt lat="43.61462" lon="5.37201">
        <ele>337.44</ele>
        <time>2015-05-20T08:13:33Z</time>
      </trkpt>
      <trkpt lat="43.61466" lon="5.37198">
        <ele>337.3</ele>
        <time>2015-05-20T08:13:45Z</time>
      </trkpt>
      <trkpt lat="43.61484" lon="5.3719">
        <ele>338.01</ele>
        <time>2015-05-20T08:14:03Z</time>
      </trkpt>
      <trkpt lat="43.61491" lon="5.37188">
        <ele>338.01</ele>
        <time>2015-05-20T08:14:10Z</time>
      </trkpt>
      <trkpt lat="43.61494" lon="5.37187">
        <ele>338.07</ele>
        <time>2015-05-20T08:14:14Z</time>
      </trkpt>
      <trkpt lat="43.61511" lon="5.37181">
        <ele>338.23</ele>
        <time>2015-05-20T08:14:31Z</time>
      </trkpt>
      <trkpt lat="43.61532" lon="5.37174">
        <ele>339.07</ele>
        <time>2015-05-20T08:14:50Z</time>
      </trkpt>
      <trkpt lat="43.61556" lon="5.37167">
        <ele>339.9</ele>
        <time>2015-05-20T08:15:13Z</time>
      </trkpt>
      <trkpt lat="43.61578" lon="5.37162">
        <ele>340.65</ele>
        <time>2015-05-20T08:15:34Z</time>
      </trkpt>
      <trkpt lat="43.61588" lon="5.37162">
        <ele>341.96</ele>
        <time>2015-05-20T08:15:49Z</time>
      </trkpt>
      <trkpt lat="43.61595" lon="5.37168">
        <ele>342.43</ele>
        <time>2015-05-20T08:16:04Z</time>
      </trkpt>
      <trkpt lat="43.61596" lon="5.37169">
        <ele>342.48</ele>
        <time>2015-05-20T08:16:05Z</time>
      </trkpt>
      <trkpt lat="43.61597" lon="5.37172">
        <ele>342.49</ele>
        <time>2015-05-20T08:16:08Z</time>
      </trkpt>
      <trkpt lat="43.61597" lon="5.37186">
        <ele>342.24</ele>
        <time>2015-05-20T08:16:21Z</time>
      </trkpt>
      <trkpt lat="43.61594" lon="5.37205">
        <ele>342.63</ele>
        <time>2015-05-20T08:16:37Z</time>
      </trkpt>
      <trkpt lat="43.61591" lon="5.37222">
        <ele>343.56</ele>
        <time>2015-05-20T08:16:54Z</time>
      </trkpt>
      <trkpt lat="43.61589" lon="5.37239">
        <ele>343.45</ele>
        <time>2015-05-20T08:17:10Z</time>
      </trkpt>
      <trkpt lat="43.61588" lon="5.3726">
        <ele>343.93</ele>
        <time>2015-05-20T08:17:28Z</time>
      </trkpt>
      <trkpt lat="43.6159" lon="5.37269">
        <ele>344.48</ele>
        <time>2015-05-20T08:17:34Z</time>
      </trkpt>
      <trkpt lat="43.61597" lon="5.37285">
        <ele>345.44</ele>
        <time>2015-05-20T08:17:45Z</time>
      </trkpt>
      <trkpt lat="43.61609" lon="5.37302">
        <ele>346.63</ele>
        <time>2015-05-20T08:18:02Z</time>
      </trkpt>
      <trkpt lat="43.61625" lon="5.3732">
        <ele>348.3</ele>
        <time>2015-05-20T08:18:21Z</time>
      </trkpt>
      <trkpt lat="43.61637" lon="5.37333">
        <ele>348.88</ele>
        <time>2015-05-20T08:18:36Z</time>
      </trkpt>
      <trkpt lat="43.61647" lon="5.37346">
        <ele>349.54</ele>
        <time>2015-05-20T08:18:47Z</time>
      </trkpt>
      <trkpt lat="43.61655" lon="5.37363">
        <ele>350.64</ele>
        <time>2015-05-20T08:19:01Z</time>
      </trkpt>
      <trkpt lat="43.61664" lon="5.37387">
        <ele>351.68</ele>
        <time>2015-05-20T08:19:20Z</time>
      </trkpt>
      <trkpt lat="43.61672" lon="5.37399">
        <ele>353.24</ele>
        <time>2015-05-20T08:19:29Z</time>
      </trkpt>
      <trkpt lat="43.61682" lon="5.37416">
        <ele>352.46</ele>
        <time>2015-05-20T08:19:44Z</time>
      </trkpt>
      <trkpt lat="43.61695" lon="5.37438">
        <ele>355.35</ele>
        <time>2015-05-20T08:20:03Z</time>
      </trkpt>
      <trkpt lat="43.61704" lon="5.3745">
        <ele>356.58</ele>
        <time>2015-05-20T08:20:18Z</time>
      </trkpt>
      <trkpt lat="43.61708" lon="5.37453">
        <ele>357.28</ele>
        <time>2015-05-20T08:20:35Z</time>
      </trkpt>
      <trkpt lat="43.61711" lon="5.37456">
        <ele>357.36</ele>
        <time>2015-05-20T08:20:41Z</time>
      </trkpt>
      <trkpt lat="43.61719" lon="5.37464">
        <ele>358.12</ele>
        <time>2015-05-20T08:21:00Z</time>
      </trkpt>
      <trkpt lat="43.61721" lon="5.37466">
        <ele>358.56</ele>
        <time>2015-05-20T08:21:14Z</time>
      </trkpt>
      <trkpt lat="43.61722" lon="5.37467">
        <ele>358.56</ele>
        <time>2015-05-20T08:21:16Z</time>
      </trkpt>
      <trkpt lat="43.61724" lon="5.37468">
        <ele>358.6</ele>
        <time>2015-05-20T08:21:18Z</time>
      </trkpt>
      <trkpt lat="43.61749" lon="5.37495">
        <ele>360.48</ele>
        <time>2015-05-20T08:21:45Z</time>
      </trkpt>
      <trkpt lat="43.61759" lon="5.37502">
        <ele>361.63</ele>
        <time>2015-05-20T08:21:55Z</time>
      </trkpt>
      <trkpt lat="43.61767" lon="5.37507">
        <ele>361.68</ele>
        <time>2015-05-20T08:22:05Z</time>
      </trkpt>
      <trkpt lat="43.6177" lon="5.37509">
        <ele>361.2</ele>
        <time>2015-05-20T08:22:18Z</time>
      </trkpt>
      <trkpt lat="43.6177" lon="5.3751">
        <ele>361.64</ele>
        <time>2015-05-20T08:22:36Z</time>
      </trkpt>
      <trkpt lat="43.61771" lon="5.37513">
        <ele>360.69</ele>
        <time>2015-05-20T08:22:51Z</time>
      </trkpt>
      <trkpt lat="43.61772" lon="5.37511">
        <ele>361.16</ele>
        <time>2015-05-20T08:23:06Z</time>
      </trkpt>
      <trkpt lat="43.61772" lon="5.37512">
        <ele>361.01</ele>
        <time>2015-05-20T08:23:23Z</time>
      </trkpt>
      <trkpt lat="43.6177" lon="5.37509">
        <ele>361.41</ele>
        <time>2015-05-20T08:23:38Z</time>
      </trkpt>
      <trkpt lat="43.6177" lon="5.37512">
        <ele>361.03</ele>
        <time>2015-05-20T08:24:05Z</time>
      </trkpt>
      <trkpt lat="43.6177" lon="5.37512">
        <ele>361.39</ele>
        <time>2015-05-20T08:24:28Z</time>
      </trkpt>
      <trkpt lat="43.6177" lon="5.3751">
        <ele>362.11</ele>
        <time>2015-05-20T08:24:43Z</time>
      </trkpt>
      <trkpt lat="43.61774" lon="5.37508">
        <ele>362.31</ele>
        <time>2015-05-20T08:24:47Z</time>
      </trkpt>
      <trkpt lat="43.61794" lon="5.37508">
        <ele>361.61</ele>
        <time>2015-05-20T08:25:07Z</time>
      </trkpt>
      <trkpt lat="43.618" lon="5.37512">
        <ele>361.89</ele>
        <time>2015-05-20T08:25:13Z</time>
      </trkpt>
      <trkpt lat="43.61803" lon="5.37514">
        <ele>362.27</ele>
        <time>2015-05-20T08:25:17Z</time>
      </trkpt>
      <trkpt lat="43.61805" lon="5.37516">
        <ele>362.57</ele>
        <time>2015-05-20T08:25:19Z</time>
      </trkpt>
      <trkpt lat="43.61817" lon="5.37527">
        <ele>364.78</ele>
        <time>2015-05-20T08:25:35Z</time>
      </trkpt>
      <trkpt lat="43.61832" lon="5.37541">
        <ele>364.82</ele>
        <time>2015-05-20T08:25:55Z</time>
      </trkpt>
      <trkpt lat="43.61842" lon="5.37549">
        <ele>364.85</ele>
        <time>2015-05-20T08:26:05Z</time>
      </trkpt>
      <trkpt lat="43.61844" lon="5.37551">
        <ele>364.97</ele>
        <time>2015-05-20T08:26:07Z</time>
      </trkpt>
      <trkpt lat="43.61863" lon="5.37568">
        <ele>366.25</ele>
        <time>2015-05-20T08:26:26Z</time>
      </trkpt>
      <trkpt lat="43.61878" lon="5.37582">
        <ele>366.73</ele>
        <time>2015-05-20T08:26:43Z</time>
      </trkpt>
      <trkpt lat="43.61892" lon="5.37598">
        <ele>369.06</ele>
        <time>2015-05-20T08:27:00Z</time>
      </trkpt>
      <trkpt lat="43.619" lon="5.37606">
        <ele>369.25</ele>
        <time>2015-05-20T08:27:15Z</time>
      </trkpt>
      <trkpt lat="43.61903" lon="5.37606">
        <ele>369.42</ele>
        <time>2015-05-20T08:27:18Z</time>
      </trkpt>
      <trkpt lat="43.6191" lon="5.376">
        <ele>370.03</ele>
        <time>2015-05-20T08:27:27Z</time>
      </trkpt>
      <trkpt lat="43.61922" lon="5.37579">
        <ele>369.71</ele>
        <time>2015-05-20T08:27:45Z</time>
      </trkpt>
      <trkpt lat="43.61932" lon="5.37555">
        <ele>370.87</ele>
        <time>2015-05-20T08:28:02Z</time>
      </trkpt>
      <trkpt lat="43.61943" lon="5.37532">
        <ele>372.54</ele>
        <time>2015-05-20T08:28:21Z</time>
      </trkpt>
      <trkpt lat="43.61954" lon="5.37509">
        <ele>371.45</ele>
        <time>2015-05-20T08:28:41Z</time>
      </trkpt>
      <trkpt lat="43.61956" lon="5.37508">
        <ele>371.39</ele>
        <time>2015-05-20T08:28:43Z</time>
      </trkpt>
      <trkpt lat="43.61958" lon="5.37511">
        <ele>371.19</ele>
        <time>2015-05-20T08:28:46Z</time>
      </trkpt>
      <trkpt lat="43.61962" lon="5.37518">
        <ele>369.47</ele>
        <time>2015-05-20T08:29:00Z</time>
      </trkpt>
      <trkpt lat="43.61971" lon="5.37542">
        <ele>370</ele>
        <time>2015-05-20T08:29:19Z</time>
      </trkpt>
      <trkpt lat="43.61983" lon="5.3756">
        <ele>372</ele>
        <time>2015-05-20T08:29:36Z</time>
      </trkpt>
      <trkpt lat="43.61998" lon="5.37577">
        <ele>374.07</ele>
        <time>2015-05-20T08:29:55Z</time>
      </trkpt>
      <trkpt lat="43.62009" lon="5.37585">
        <ele>373.35</ele>
        <time>2015-05-20T08:30:10Z</time>
      </trkpt>
      <trkpt lat="43.62022" lon="5.37595">
        <ele>374.25</ele>
        <time>2015-05-20T08:30:28Z</time>
      </trkpt>
      <trkpt lat="43.62032" lon="5.376">
        <ele>377.28</ele>
        <time>2015-05-20T08:30:41Z</time>
      </trkpt>
      <trkpt lat="43.62045" lon="5.376">
        <ele>378.52</ele>
        <time>2015-05-20T08:30:55Z</time>
      </trkpt>
      <trkpt lat="43.62053" lon="5.37599">
        <ele>377.96</ele>
        <time>2015-05-20T08:31:03Z</time>
      </trkpt>
      <trkpt lat="43.6206" lon="5.37593">
        <ele>379.53</ele>
        <time>2015-05-20T08:31:20Z</time>
      </trkpt>
      <trkpt lat="43.62066" lon="5.37594">
        <ele>380.17</ele>
        <time>2015-05-20T08:31:38Z</time>
      </trkpt>
      <trkpt lat="43.62074" lon="5.37595">
        <ele>381.59</ele>
        <time>2015-05-20T08:31:57Z</time>
      </trkpt>
      <trkpt lat="43.62082" lon="5.37596">
        <ele>382.48</ele>
        <time>2015-05-20T08:32:12Z</time>
      </trkpt>
      <trkpt lat="43.62084" lon="5.37597">
        <ele>382.16</ele>
        <time>2015-05-20T08:32:41Z</time>
      </trkpt>
      <trkpt lat="43.62084" lon="5.37595">
        <ele>382.11</ele>
        <time>2015-05-20T08:33:06Z</time>
      </trkpt>
      <trkpt lat="43.62084" lon="5.37597">
        <ele>382.66</ele>
        <time>2015-05-20T08:33:28Z</time>
      </trkpt>
      <trkpt lat="43.62083" lon="5.37596">
        <ele>381.88</ele>
        <time>2015-05-20T08:33:48Z</time>
      </trkpt>
      <trkpt lat="43.62083" lon="5.37596">
        <ele>382.48</ele>
        <time>2015-05-20T08:34:17Z</time>
      </trkpt>
      <trkpt lat="43.62083" lon="5.37596">
        <ele>382.24</ele>
        <time>2015-05-20T08:34:50Z</time>
      </trkpt>
      <trkpt lat="43.62083" lon="5.37595">
        <ele>382.2</ele>
        <time>2015-05-20T08:35:09Z</time>
      </trkpt>
      <trkpt lat="43.62083" lon="5.37594">
        <ele>382.19</ele>
        <time>2015-05-20T08:35:31Z</time>
      </trkpt>
      <trkpt lat="43.62082" lon="5.37595">
        <ele>382.53</ele>
        <time>2015-05-20T08:35:57Z</time>
      </trkpt>
      <trkpt lat="43.62084" lon="5.37595">
        <ele>382.13</ele>
        <time>2015-05-20T08:36:19Z</time>
      </trkpt>
      <trkpt lat="43.62083" lon="5.37593">
        <ele>381.59</ele>
        <time>2015-05-20T08:36:43Z</time>
      </trkpt>
      <trkpt lat="43.62085" lon="5.37591">
        <ele>382.39</ele>
        <time>2015-05-20T08:37:05Z</time>
      </trkpt>
      <trkpt lat="43.62092" lon="5.37577">
        <ele>382.67</ele>
        <time>2015-05-20T08:37:24Z</time>
      </trkpt>
      <trkpt lat="43.62095" lon="5.37572">
        <ele>382.82</ele>
        <time>2015-05-20T08:37:28Z</time>
      </trkpt>
      <trkpt lat="43.62101" lon="5.37561">
        <ele>383.1</ele>
        <time>2015-05-20T08:37:37Z</time>
      </trkpt>
      <trkpt lat="43.62112" lon="5.37541">
        <ele>383.83</ele>
        <time>2015-05-20T08:37:55Z</time>
      </trkpt>
      <trkpt lat="43.62122" lon="5.37514">
        <ele>383.49</ele>
        <time>2015-05-20T08:38:16Z</time>
      </trkpt>
      <trkpt lat="43.62127" lon="5.37497">
        <ele>382.73</ele>
        <time>2015-05-20T08:38:31Z</time>
      </trkpt>
      <trkpt lat="43.6213" lon="5.3749">
        <ele>383.49</ele>
        <time>2015-05-20T08:38:38Z</time>
      </trkpt>
      <trkpt lat="43.62135" lon="5.37477">
        <ele>383.99</ele>
        <time>2015-05-20T08:38:48Z</time>
      </trkpt>
      <trkpt lat="43.62138" lon="5.37465">
        <ele>383.28</ele>
        <time>2015-05-20T08:38:56Z</time>
      </trkpt>
      <trkpt lat="43.62145" lon="5.37441">
        <ele>382.17</ele>
        <time>2015-05-20T08:39:15Z</time>
      </trkpt>
      <trkpt lat="43.62148" lon="5.37424">
        <ele>383.57</ele>
        <time>2015-05-20T08:39:32Z</time>
      </trkpt>
      <trkpt lat="43.62155" lon="5.37405">
        <ele>384.36</ele>
        <time>2015-05-20T08:39:50Z</time>
      </trkpt>
      <trkpt lat="43.62155" lon="5.37404">
        <ele>384.35</ele>
        <time>2015-05-20T08:39:51Z</time>
      </trkpt>
      <trkpt lat="43.62163" lon="5.37382">
        <ele>384.85</ele>
        <time>2015-05-20T08:40:09Z</time>
      </trkpt>
      <trkpt lat="43.62166" lon="5.37371">
        <ele>385.39</ele>
        <time>2015-05-20T08:40:17Z</time>
      </trkpt>
      <trkpt lat="43.62173" lon="5.3735">
        <ele>385.54</ele>
        <time>2015-05-20T08:40:32Z</time>
      </trkpt>
      <trkpt lat="43.6218" lon="5.37325">
        <ele>386.6</ele>
        <time>2015-05-20T08:40:52Z</time>
      </trkpt>
      <trkpt lat="43.62182" lon="5.37315">
        <ele>386.68</ele>
        <time>2015-05-20T08:41:00Z</time>
      </trkpt>
      <trkpt lat="43.62184" lon="5.37305">
        <ele>386.53</ele>
        <time>2015-05-20T08:41:08Z</time>
      </trkpt>
      <trkpt lat="43.62193" lon="5.3728">
        <ele>387.01</ele>
        <time>2015-05-20T08:41:26Z</time>
      </trkpt>
      <trkpt lat="43.62193" lon="5.37278">
        <ele>387.02</ele>
        <time>2015-05-20T08:41:28Z</time>
      </trkpt>
      <trkpt lat="43.62195" lon="5.37272">
        <ele>387.17</ele>
        <time>2015-05-20T08:41:32Z</time>
      </trkpt>
      <trkpt lat="43.62205" lon="5.37242">
        <ele>387.47</ele>
        <time>2015-05-20T08:41:55Z</time>
      </trkpt>
      <trkpt lat="43.6221" lon="5.37223">
        <ele>387.81</ele>
        <time>2015-05-20T08:42:13Z</time>
      </trkpt>
      <trkpt lat="43.62217" lon="5.37195">
        <ele>387.44</ele>
        <time>2015-05-20T08:42:33Z</time>
      </trkpt>
      <trkpt lat="43.62222" lon="5.37171">
        <ele>386.71</ele>
        <time>2015-05-20T08:42:52Z</time>
      </trkpt>
      <trkpt lat="43.62226" lon="5.3715">
        <ele>383.97</ele>
        <time>2015-05-20T08:43:11Z</time>
      </trkpt>
      <trkpt lat="43.62233" lon="5.37128">
        <ele>382.93</ele>
        <time>2015-05-20T08:43:28Z</time>
      </trkpt>
      <trkpt lat="43.62233" lon="5.37118">
        <ele>382.51</ele>
        <time>2015-05-20T08:43:36Z</time>
      </trkpt>
      <trkpt lat="43.62236" lon="5.37092">
        <ele>383.13</ele>
        <time>2015-05-20T08:43:54Z</time>
      </trkpt>
      <trkpt lat="43.62248" lon="5.37082">
        <ele>385.56</ele>
        <time>2015-05-20T08:44:13Z</time>
      </trkpt>
      <trkpt lat="43.62259" lon="5.37076">
        <ele>387.8</ele>
        <time>2015-05-20T08:44:32Z</time>
      </trkpt>
      <trkpt lat="43.62269" lon="5.37069">
        <ele>388.55</ele>
        <time>2015-05-20T08:44:45Z</time>
      </trkpt>
      <trkpt lat="43.62281" lon="5.37066">
        <ele>390.37</ele>
        <time>2015-05-20T08:45:02Z</time>
      </trkpt>
      <trkpt lat="43.62295" lon="5.37052">
        <ele>392.48</ele>
        <time>2015-05-20T08:45:21Z</time>
      </trkpt>
      <trkpt lat="43.62295" lon="5.37049">
        <ele>392.7</ele>
        <time>2015-05-20T08:45:23Z</time>
      </trkpt>
      <trkpt lat="43.62297" lon="5.37042">
        <ele>393.27</ele>
        <time>2015-05-20T08:45:28Z</time>
      </trkpt>
      <trkpt lat="43.62304" lon="5.37019">
        <ele>395.3</ele>
        <time>2015-05-20T08:45:46Z</time>
      </trkpt>
      <trkpt lat="43.62306" lon="5.37006">
        <ele>394.98</ele>
        <time>2015-05-20T08:45:55Z</time>
      </trkpt>
      <trkpt lat="43.62306" lon="5.36983">
        <ele>394.38</ele>
        <time>2015-05-20T08:46:11Z</time>
      </trkpt>
      <trkpt lat="43.62308" lon="5.36967">
        <ele>395.27</ele>
        <time>2015-05-20T08:46:24Z</time>
      </trkpt>
      <trkpt lat="43.62311" lon="5.36953">
        <ele>395.89</ele>
        <time>2015-05-20T08:46:38Z</time>
      </trkpt>
      <trkpt lat="43.62316" lon="5.36926">
        <ele>396.22</ele>
        <time>2015-05-20T08:47:01Z</time>
      </trkpt>
      <trkpt lat="43.62323" lon="5.36904">
        <ele>397.59</ele>
        <time>2015-05-20T08:47:16Z</time>
      </trkpt>
      <trkpt lat="43.62327" lon="5.36879">
        <ele>397.62</ele>
        <time>2015-05-20T08:47:33Z</time>
      </trkpt>
      <trkpt lat="43.62336" lon="5.3686">
        <ele>398.06</ele>
        <time>2015-05-20T08:47:49Z</time>
      </trkpt>
      <trkpt lat="43.62346" lon="5.36845">
        <ele>399.08</ele>
        <time>2015-05-20T08:48:04Z</time>
      </trkpt>
      <trkpt lat="43.62351" lon="5.36838">
        <ele>399.63</ele>
        <time>2015-05-20T08:48:10Z</time>
      </trkpt>
      <trkpt lat="43.62367" lon="5.36822">
        <ele>401.53</ele>
        <time>2015-05-20T08:48:30Z</time>
      </trkpt>
      <trkpt lat="43.6238" lon="5.36818">
        <ele>403.12</ele>
        <time>2015-05-20T08:48:46Z</time>
      </trkpt>
      <trkpt lat="43.62383" lon="5.36813">
        <ele>403.64</ele>
        <time>2015-05-20T08:48:51Z</time>
      </trkpt>
      <trkpt lat="43.62392" lon="5.36789">
        <ele>403.45</ele>
        <time>2015-05-20T08:49:10Z</time>
      </trkpt>
      <trkpt lat="43.62394" lon="5.36755">
        <ele>402.03</ele>
        <time>2015-05-20T08:49:33Z</time>
      </trkpt>
      <trkpt lat="43.62393" lon="5.36727">
        <ele>400.32</ele>
        <time>2015-05-20T08:49:54Z</time>
      </trkpt>
      <trkpt lat="43.62392" lon="5.36699">
        <ele>398.46</ele>
        <time>2015-05-20T08:50:13Z</time>
      </trkpt>
      <trkpt lat="43.62391" lon="5.36671">
        <ele>397.37</ele>
        <time>2015-05-20T08:50:32Z</time>
      </trkpt>
      <trkpt lat="43.62389" lon="5.36641">
        <ele>395.86</ele>
        <time>2015-05-20T08:50:52Z</time>
      </trkpt>
      <trkpt lat="43.62388" lon="5.36611">
        <ele>395.23</ele>
        <time>2015-05-20T08:51:11Z</time>
      </trkpt>
      <trkpt lat="43.62386" lon="5.36588">
        <ele>396.82</ele>
        <time>2015-05-20T08:51:28Z</time>
      </trkpt>
      <trkpt lat="43.62388" lon="5.36583">
        <ele>397.15</ele>
        <time>2015-05-20T08:51:42Z</time>
      </trkpt>
      <trkpt lat="43.62385" lon="5.36581">
        <ele>396.82</ele>
        <time>2015-05-20T08:51:56Z</time>
      </trkpt>
      <trkpt lat="43.62385" lon="5.36583">
        <ele>396.44</ele>
        <time>2015-05-20T08:52:23Z</time>
      </trkpt>
      <trkpt lat="43.62386" lon="5.36583">
        <ele>396.06</ele>
        <time>2015-05-20T08:52:38Z</time>
      </trkpt>
      <trkpt lat="43.62385" lon="5.36581">
        <ele>397.16</ele>
        <time>2015-05-20T08:53:01Z</time>
      </trkpt>
      <trkpt lat="43.62384" lon="5.36583">
        <ele>397.64</ele>
        <time>2015-05-20T08:53:34Z</time>
      </trkpt>
      <trkpt lat="43.62385" lon="5.36587">
        <ele>396.32</ele>
        <time>2015-05-20T08:53:47Z</time>
      </trkpt>
      <trkpt lat="43.62385" lon="5.36587">
        <ele>396.03</ele>
        <time>2015-05-20T08:54:15Z</time>
      </trkpt>
      <trkpt lat="43.62385" lon="5.36584">
        <ele>396.27</ele>
        <time>2015-05-20T08:54:22Z</time>
      </trkpt>
      <trkpt lat="43.62387" lon="5.36582">
        <ele>396.41</ele>
        <time>2015-05-20T08:54:24Z</time>
      </trkpt>
      <trkpt lat="43.62402" lon="5.36568">
        <ele>398.91</ele>
        <time>2015-05-20T08:54:44Z</time>
      </trkpt>
      <trkpt lat="43.62416" lon="5.36558">
        <ele>399.71</ele>
        <time>2015-05-20T08:55:01Z</time>
      </trkpt>
      <trkpt lat="43.62432" lon="5.3655">
        <ele>401.09</ele>
        <time>2015-05-20T08:55:19Z</time>
      </trkpt>
      <trkpt lat="43.62449" lon="5.36541">
        <ele>401.62</ele>
        <time>2015-05-20T08:55:37Z</time>
      </trkpt>
      <trkpt lat="43.62465" lon="5.36533">
        <ele>401.87</ele>
        <time>2015-05-20T08:55:54Z</time>
      </trkpt>
      <trkpt lat="43.62476" lon="5.36527">
        <ele>402.42</ele>
        <time>2015-05-20T08:56:10Z</time>
      </trkpt>
      <trkpt lat="43.62476" lon="5.36513">
        <ele>402.32</ele>
        <time>2015-05-20T08:56:23Z</time>
      </trkpt>
      <trkpt lat="43.62476" lon="5.36508">
        <ele>402.18</ele>
        <time>2015-05-20T08:56:26Z</time>
      </trkpt>
      <trkpt lat="43.62473" lon="5.36478">
        <ele>402.27</ele>
        <time>2015-05-20T08:56:49Z</time>
      </trkpt>
      <trkpt lat="43.62472" lon="5.36452">
        <ele>401.85</ele>
        <time>2015-05-20T08:57:07Z</time>
      </trkpt>
      <trkpt lat="43.62468" lon="5.36422">
        <ele>401.49</ele>
        <time>2015-05-20T08:57:28Z</time>
      </trkpt>
      <trkpt lat="43.62466" lon="5.36407">
        <ele>401.34</ele>
        <time>2015-05-20T08:57:38Z</time>
      </trkpt>
      <trkpt lat="43.62465" lon="5.36383">
        <ele>401.04</ele>
        <time>2015-05-20T08:57:57Z</time>
      </trkpt>
      <trkpt lat="43.62463" lon="5.36361">
        <ele>400.37</ele>
        <time>2015-05-20T08:58:15Z</time>
      </trkpt>
      <trkpt lat="43.6246" lon="5.36336">
        <ele>399.78</ele>
        <time>2015-05-20T08:58:36Z</time>
      </trkpt>
      <trkpt lat="43.62458" lon="5.36311">
        <ele>398.87</ele>
        <time>2015-05-20T08:58:55Z</time>
      </trkpt>
      <trkpt lat="43.62455" lon="5.36282">
        <ele>398.26</ele>
        <time>2015-05-20T08:59:16Z</time>
      </trkpt>
      <trkpt lat="43.62456" lon="5.36278">
        <ele>397.57</ele>
        <time>2015-05-20T08:59:21Z</time>
      </trkpt>
      <trkpt lat="43.62454" lon="5.36277">
        <ele>397.89</ele>
        <time>2015-05-20T08:59:37Z</time>
      </trkpt>
      <trkpt lat="43.62454" lon="5.36277">
        <ele>398.01</ele>
        <time>2015-05-20T08:59:58Z</time>
      </trkpt>
      <trkpt lat="43.62452" lon="5.36275">
        <ele>397.61</ele>
        <time>2015-05-20T09:00:15Z</time>
      </trkpt>
      <trkpt lat="43.62451" lon="5.36264">
        <ele>397.81</ele>
        <time>2015-05-20T09:00:32Z</time>
      </trkpt>
      <trkpt lat="43.6245" lon="5.36244">
        <ele>397.49</ele>
        <time>2015-05-20T09:00:49Z</time>
      </trkpt>
      <trkpt lat="43.62449" lon="5.36235">
        <ele>397.55</ele>
        <time>2015-05-20T09:01:02Z</time>
      </trkpt>
      <trkpt lat="43.62448" lon="5.36221">
        <ele>396.77</ele>
        <time>2015-05-20T09:01:13Z</time>
      </trkpt>
      <trkpt lat="43.62445" lon="5.36194">
        <ele>396.8</ele>
        <time>2015-05-20T09:01:32Z</time>
      </trkpt>
      <trkpt lat="43.62441" lon="5.36177">
        <ele>396.72</ele>
        <time>2015-05-20T09:01:48Z</time>
      </trkpt>
      <trkpt lat="43.62439" lon="5.36177">
        <ele>396.04</ele>
        <time>2015-05-20T09:02:03Z</time>
      </trkpt>
      <trkpt lat="43.62441" lon="5.36171">
        <ele>396.11</ele>
        <time>2015-05-20T09:02:15Z</time>
      </trkpt>
      <trkpt lat="43.6244" lon="5.36159">
        <ele>395.41</ele>
        <time>2015-05-20T09:02:33Z</time>
      </trkpt>
      <trkpt lat="43.6244" lon="5.36161">
        <ele>395.65</ele>
        <time>2015-05-20T09:02:49Z</time>
      </trkpt>
      <trkpt lat="43.62439" lon="5.36161">
        <ele>395.88</ele>
        <time>2015-05-20T09:03:07Z</time>
      </trkpt>
      <trkpt lat="43.62439" lon="5.36154">
        <ele>396.46</ele>
        <time>2015-05-20T09:03:21Z</time>
      </trkpt>
      <trkpt lat="43.62437" lon="5.36141">
        <ele>396.69</ele>
        <time>2015-05-20T09:03:35Z</time>
      </trkpt>
      <trkpt lat="43.62436" lon="5.36121">
        <ele>395.46</ele>
        <time>2015-05-20T09:03:54Z</time>
      </trkpt>
      <trkpt lat="43.62436" lon="5.36096">
        <ele>395.13</ele>
        <time>2015-05-20T09:04:14Z</time>
      </trkpt>
      <trkpt lat="43.6244" lon="5.36086">
        <ele>396.23</ele>
        <time>2015-05-20T09:04:31Z</time>
      </trkpt>
      <trkpt lat="43.6244" lon="5.36087">
        <ele>395.36</ele>
        <time>2015-05-20T09:04:43Z</time>
      </trkpt>
      <trkpt lat="43.62438" lon="5.36081">
        <ele>395.51</ele>
        <time>2015-05-20T09:05:01Z</time>
      </trkpt>
      <trkpt lat="43.62438" lon="5.36074">
        <ele>395.22</ele>
        <time>2015-05-20T09:05:06Z</time>
      </trkpt>
      <trkpt lat="43.62442" lon="5.36052">
        <ele>395.34</ele>
        <time>2015-05-20T09:05:25Z</time>
      </trkpt>
      <trkpt lat="43.62444" lon="5.36042">
        <ele>395.52</ele>
        <time>2015-05-20T09:05:36Z</time>
      </trkpt>
      <trkpt lat="43.62449" lon="5.36016">
        <ele>394.83</ele>
        <time>2015-05-20T09:05:55Z</time>
      </trkpt>
      <trkpt lat="43.62453" lon="5.3599">
        <ele>394.79</ele>
        <time>2015-05-20T09:06:13Z</time>
      </trkpt>
      <trkpt lat="43.62458" lon="5.35968">
        <ele>394.86</ele>
        <time>2015-05-20T09:06:29Z</time>
      </trkpt>
      <trkpt lat="43.62462" lon="5.35941">
        <ele>394.81</ele>
        <time>2015-05-20T09:06:48Z</time>
      </trkpt>
      <trkpt lat="43.62467" lon="5.35907">
        <ele>393.95</ele>
        <time>2015-05-20T09:07:11Z</time>
      </trkpt>
      <trkpt lat="43.62471" lon="5.3588">
        <ele>392.9</ele>
        <time>2015-05-20T09:07:30Z</time>
      </trkpt>
      <trkpt lat="43.62476" lon="5.35846">
        <ele>392.33</ele>
        <time>2015-05-20T09:07:53Z</time>
      </trkpt>
      <trkpt lat="43.6248" lon="5.35817">
        <ele>391.85</ele>
        <time>2015-05-20T09:08:13Z</time>
      </trkpt>
      <trkpt lat="43.62486" lon="5.35786">
        <ele>391.54</ele>
        <time>2015-05-20T09:08:35Z</time>
      </trkpt>
      <trkpt lat="43.6249" lon="5.35763">
        <ele>390.91</ele>
        <time>2015-05-20T09:08:52Z</time>
      </trkpt>
      <trkpt lat="43.62496" lon="5.35734">
        <ele>389.96</ele>
        <time>2015-05-20T09:09:13Z</time>
      </trkpt>
      <trkpt lat="43.62501" lon="5.35711">
        <ele>390.02</ele>
        <time>2015-05-20T09:09:31Z</time>
      </trkpt>
      <trkpt lat="43.62507" lon="5.35682">
        <ele>390.31</ele>
        <time>2015-05-20T09:09:52Z</time>
      </trkpt>
      <trkpt lat="43.62513" lon="5.35658">
        <ele>389.78</ele>
        <time>2015-05-20T09:10:10Z</time>
      </trkpt>
      <trkpt lat="43.6252" lon="5.35628">
        <ele>389.13</ele>
        <time>2015-05-20T09:10:33Z</time>
      </trkpt>
      <trkpt lat="43.62526" lon="5.35596">
        <ele>388.72</ele>
        <time>2015-05-20T09:10:55Z</time>
      </trkpt>
      <trkpt lat="43.62535" lon="5.35564">
        <ele>388.19</ele>
        <time>2015-05-20T09:11:19Z</time>
      </trkpt>
      <trkpt lat="43.62538" lon="5.35551">
        <ele>387.5</ele>
        <time>2015-05-20T09:11:35Z</time>
      </trkpt>
      <trkpt lat="43.62535" lon="5.35552">
        <ele>387.58</ele>
        <time>2015-05-20T09:11:50Z</time>
      </trkpt>
      <trkpt lat="43.62539" lon="5.3554">
        <ele>388.23</ele>
        <time>2015-05-20T09:12:07Z</time>
      </trkpt>
      <trkpt lat="43.62543" lon="5.35525">
        <ele>387.78</ele>
        <time>2015-05-20T09:12:23Z</time>
      </trkpt>
      <trkpt lat="43.62547" lon="5.35495">
        <ele>386.57</ele>
        <time>2015-05-20T09:12:47Z</time>
      </trkpt>
      <trkpt lat="43.62553" lon="5.35468">
        <ele>386.07</ele>
        <time>2015-05-20T09:13:08Z</time>
      </trkpt>
      <trkpt lat="43.62558" lon="5.35441">
        <ele>385.96</ele>
        <time>2015-05-20T09:13:27Z</time>
      </trkpt>
      <trkpt lat="43.62563" lon="5.35414">
        <ele>385.08</ele>
        <time>2015-05-20T09:13:48Z</time>
      </trkpt>
      <trkpt lat="43.62569" lon="5.35385">
        <ele>383.98</ele>
        <time>2015-05-20T09:14:10Z</time>
      </trkpt>
      <trkpt lat="43.62575" lon="5.35361">
        <ele>383.26</ele>
        <time>2015-05-20T09:14:29Z</time>
      </trkpt>
      <trkpt lat="43.6258" lon="5.35335">
        <ele>382.9</ele>
        <time>2015-05-20T09:14:49Z</time>
      </trkpt>
      <trkpt lat="43.62581" lon="5.35329">
        <ele>382.72</ele>
        <time>2015-05-20T09:14:54Z</time>
      </trkpt>
      <trkpt lat="43.62582" lon="5.35314">
        <ele>382.69</ele>
        <time>2015-05-20T09:15:07Z</time>
      </trkpt>
      <trkpt lat="43.62588" lon="5.35289">
        <ele>381.91</ele>
        <time>2015-05-20T09:15:26Z</time>
      </trkpt>
      <trkpt lat="43.62593" lon="5.35264">
        <ele>380.59</ele>
        <time>2015-05-20T09:15:46Z</time>
      </trkpt>
      <trkpt lat="43.62598" lon="5.35237">
        <ele>380.29</ele>
        <time>2015-05-20T09:16:06Z</time>
      </trkpt>
      <trkpt lat="43.62603" lon="5.35213">
        <ele>379.11</ele>
        <time>2015-05-20T09:16:25Z</time>
      </trkpt>
      <trkpt lat="43.62607" lon="5.35192">
        <ele>379.25</ele>
        <time>2015-05-20T09:16:42Z</time>
      </trkpt>
      <trkpt lat="43.62613" lon="5.35167">
        <ele>378.52</ele>
        <time>2015-05-20T09:17:00Z</time>
      </trkpt>
      <trkpt lat="43.62617" lon="5.35143">
        <ele>378.89</ele>
        <time>2015-05-20T09:17:18Z</time>
      </trkpt>
      <trkpt lat="43.62621" lon="5.35117">
        <ele>377.57</ele>
        <time>2015-05-20T09:17:38Z</time>
      </trkpt>
      <trkpt lat="43.62624" lon="5.35101">
        <ele>376.47</ele>
        <time>2015-05-20T09:17:54Z</time>
      </trkpt>
      <trkpt lat="43.62626" lon="5.35075">
        <ele>374.66</ele>
        <time>2015-05-20T09:18:15Z</time>
      </trkpt>
      <trkpt lat="43.62633" lon="5.3505">
        <ele>374.65</ele>
        <time>2015-05-20T09:18:33Z</time>
      </trkpt>
      <trkpt lat="43.62637" lon="5.3503">
        <ele>374.47</ele>
        <time>2015-05-20T09:18:51Z</time>
      </trkpt>
      <trkpt lat="43.6264" lon="5.35014">
        <ele>373.34</ele>
        <time>2015-05-20T09:19:05Z</time>
      </trkpt>
      <trkpt lat="43.62642" lon="5.3501">
        <ele>372.93</ele>
        <time>2015-05-20T09:19:08Z</time>
      </trkpt>
      <trkpt lat="43.62645" lon="5.34987">
        <ele>371.97</ele>
        <time>2015-05-20T09:19:27Z</time>
      </trkpt>
      <trkpt lat="43.6265" lon="5.34972">
        <ele>371.75</ele>
        <time>2015-05-20T09:19:39Z</time>
      </trkpt>
      <trkpt lat="43.62652" lon="5.34965">
        <ele>372.01</ele>
        <time>2015-05-20T09:19:45Z</time>
      </trkpt>
      <trkpt lat="43.62657" lon="5.3494">
        <ele>370.21</ele>
        <time>2015-05-20T09:19:59Z</time>
      </trkpt>
      <trkpt lat="43.62656" lon="5.34935">
        <ele>371.82</ele>
        <time>2015-05-20T09:20:12Z</time>
      </trkpt>
      <trkpt lat="43.62657" lon="5.34932">
        <ele>372.98</ele>
        <time>2015-05-20T09:20:31Z</time>
      </trkpt>
      <trkpt lat="43.6266" lon="5.34924">
        <ele>370.86</ele>
        <time>2015-05-20T09:20:48Z</time>
      </trkpt>
      <trkpt lat="43.62667" lon="5.34905">
        <ele>370.86</ele>
        <time>2015-05-20T09:21:06Z</time>
      </trkpt>
      <trkpt lat="43.62669" lon="5.3489">
        <ele>370.65</ele>
        <time>2015-05-20T09:21:20Z</time>
      </trkpt>
      <trkpt lat="43.62676" lon="5.34868">
        <ele>370.45</ele>
        <time>2015-05-20T09:21:38Z</time>
      </trkpt>
      <trkpt lat="43.62678" lon="5.34858">
        <ele>370.32</ele>
        <time>2015-05-20T09:21:48Z</time>
      </trkpt>
      <trkpt lat="43.6268" lon="5.34832">
        <ele>370.3</ele>
        <time>2015-05-20T09:22:06Z</time>
      </trkpt>
      <trkpt lat="43.62685" lon="5.34818">
        <ele>370.08</ele>
        <time>2015-05-20T09:22:18Z</time>
      </trkpt>
      <trkpt lat="43.62689" lon="5.34797">
        <ele>370.01</ele>
        <time>2015-05-20T09:22:36Z</time>
      </trkpt>
      <trkpt lat="43.62693" lon="5.34782">
        <ele>369.78</ele>
        <time>2015-05-20T09:22:50Z</time>
      </trkpt>
      <trkpt lat="43.62701" lon="5.34756">
        <ele>370.42</ele>
        <time>2015-05-20T09:23:10Z</time>
      </trkpt>
      <trkpt lat="43.62711" lon="5.34734">
        <ele>370.31</ele>
        <time>2015-05-20T09:23:29Z</time>
      </trkpt>
      <trkpt lat="43.62713" lon="5.34731">
        <ele>370.18</ele>
        <time>2015-05-20T09:23:31Z</time>
      </trkpt>
      <trkpt lat="43.62723" lon="5.3471">
        <ele>369.11</ele>
        <time>2015-05-20T09:23:50Z</time>
      </trkpt>
      <trkpt lat="43.62733" lon="5.34693">
        <ele>368.04</ele>
        <time>2015-05-20T09:24:06Z</time>
      </trkpt>
      <trkpt lat="43.62736" lon="5.34687">
        <ele>367.59</ele>
        <time>2015-05-20T09:24:19Z</time>
      </trkpt>
      <trkpt lat="43.62741" lon="5.34667">
        <ele>367.77</ele>
        <time>2015-05-20T09:24:37Z</time>
      </trkpt>
      <trkpt lat="43.62745" lon="5.3465">
        <ele>367.42</ele>
        <time>2015-05-20T09:24:52Z</time>
      </trkpt>
      <trkpt lat="43.62748" lon="5.34644">
        <ele>367.22</ele>
        <time>2015-05-20T09:24:58Z</time>
      </trkpt>
      <trkpt lat="43.62758" lon="5.34625">
        <ele>366.5</ele>
        <time>2015-05-20T09:25:15Z</time>
      </trkpt>
      <trkpt lat="43.62768" lon="5.34605">
        <ele>366.2</ele>
        <time>2015-05-20T09:25:33Z</time>
      </trkpt>
      <trkpt lat="43.62776" lon="5.34589">
        <ele>365.17</ele>
        <time>2015-05-20T09:25:48Z</time>
      </trkpt>
      <trkpt lat="43.62779" lon="5.34572">
        <ele>363.95</ele>
        <time>2015-05-20T09:26:05Z</time>
      </trkpt>
      <trkpt lat="43.62783" lon="5.34545">
        <ele>362.86</ele>
        <time>2015-05-20T09:26:25Z</time>
      </trkpt>
      <trkpt lat="43.62789" lon="5.34531">
        <ele>362.5</ele>
        <time>2015-05-20T09:26:34Z</time>
      </trkpt>
      <trkpt lat="43.62795" lon="5.3452">
        <ele>361.6</ele>
        <time>2015-05-20T09:26:41Z</time>
      </trkpt>
      <trkpt lat="43.62801" lon="5.34494">
        <ele>361.23</ele>
        <time>2015-05-20T09:27:00Z</time>
      </trkpt>
      <trkpt lat="43.62801" lon="5.34493">
        <ele>361.14</ele>
        <time>2015-05-20T09:27:01Z</time>
      </trkpt>
      <trkpt lat="43.62801" lon="5.34489">
        <ele>360.69</ele>
        <time>2015-05-20T09:27:03Z</time>
      </trkpt>
      <trkpt lat="43.62808" lon="5.34459">
        <ele>360.41</ele>
        <time>2015-05-20T09:27:22Z</time>
      </trkpt>
      <trkpt lat="43.62812" lon="5.34446">
        <ele>360.04</ele>
        <time>2015-05-20T09:27:34Z</time>
      </trkpt>
      <trkpt lat="43.62814" lon="5.34439">
        <ele>359.38</ele>
        <time>2015-05-20T09:27:40Z</time>
      </trkpt>
      <trkpt lat="43.62828" lon="5.34415">
        <ele>357.3</ele>
        <time>2015-05-20T09:28:01Z</time>
      </trkpt>
      <trkpt lat="43.62842" lon="5.34395">
        <ele>356.01</ele>
        <time>2015-05-20T09:28:22Z</time>
      </trkpt>
      <trkpt lat="43.62853" lon="5.34374">
        <ele>355.76</ele>
        <time>2015-05-20T09:28:40Z</time>
      </trkpt>
      <trkpt lat="43.6286" lon="5.34352">
        <ele>355.07</ele>
        <time>2015-05-20T09:28:57Z</time>
      </trkpt>
      <trkpt lat="43.6286" lon="5.34351">
        <ele>355.08</ele>
        <time>2015-05-20T09:28:58Z</time>
      </trkpt>
      <trkpt lat="43.62862" lon="5.34331">
        <ele>354.86</ele>
        <time>2015-05-20T09:29:11Z</time>
      </trkpt>
      <trkpt lat="43.62861" lon="5.34306">
        <ele>353.76</ele>
        <time>2015-05-20T09:29:28Z</time>
      </trkpt>
      <trkpt lat="43.62864" lon="5.34279">
        <ele>352.54</ele>
        <time>2015-05-20T09:29:48Z</time>
      </trkpt>
      <trkpt lat="43.6287" lon="5.34255">
        <ele>353</ele>
        <time>2015-05-20T09:30:06Z</time>
      </trkpt>
      <trkpt lat="43.62879" lon="5.34236">
        <ele>353.1</ele>
        <time>2015-05-20T09:30:23Z</time>
      </trkpt>
      <trkpt lat="43.62886" lon="5.34213">
        <ele>352.49</ele>
        <time>2015-05-20T09:30:40Z</time>
      </trkpt>
      <trkpt lat="43.62889" lon="5.34192">
        <ele>351.91</ele>
        <time>2015-05-20T09:30:55Z</time>
      </trkpt>
      <trkpt lat="43.62896" lon="5.34162">
        <ele>350.92</ele>
        <time>2015-05-20T09:31:17Z</time>
      </trkpt>
      <trkpt lat="43.62898" lon="5.34159">
        <ele>350.99</ele>
        <time>2015-05-20T09:31:20Z</time>
      </trkpt>
      <trkpt lat="43.62906" lon="5.34133">
        <ele>351.02</ele>
        <time>2015-05-20T09:31:39Z</time>
      </trkpt>
      <trkpt lat="43.62915" lon="5.34112">
        <ele>350.63</ele>
        <time>2015-05-20T09:31:56Z</time>
      </trkpt>
      <trkpt lat="43.62926" lon="5.34092">
        <ele>350.66</ele>
        <time>2015-05-20T09:32:13Z</time>
      </trkpt>
      <trkpt lat="43.62939" lon="5.34064">
        <ele>349.77</ele>
        <time>2015-05-20T09:32:35Z</time>
      </trkpt>
      <trkpt lat="43.62951" lon="5.34038">
        <ele>349.27</ele>
        <time>2015-05-20T09:32:55Z</time>
      </trkpt>
      <trkpt lat="43.62955" lon="5.34029">
        <ele>348.58</ele>
        <time>2015-05-20T09:33:02Z</time>
      </trkpt>
      <trkpt lat="43.62963" lon="5.34007">
        <ele>347.75</ele>
        <time>2015-05-20T09:33:19Z</time>
      </trkpt>
      <trkpt lat="43.62972" lon="5.33987">
        <ele>346.76</ele>
        <time>2015-05-20T09:33:37Z</time>
      </trkpt>
      <trkpt lat="43.62984" lon="5.33969">
        <ele>345.53</ele>
        <time>2015-05-20T09:33:56Z</time>
      </trkpt>
      <trkpt lat="43.62991" lon="5.33949">
        <ele>344.59</ele>
        <time>2015-05-20T09:34:13Z</time>
      </trkpt>
      <trkpt lat="43.62994" lon="5.3394">
        <ele>344.9</ele>
        <time>2015-05-20T09:34:20Z</time>
      </trkpt>
      <trkpt lat="43.63004" lon="5.33919">
        <ele>345.75</ele>
        <time>2015-05-20T09:34:37Z</time>
      </trkpt>
      <trkpt lat="43.6302" lon="5.3389">
        <ele>345.21</ele>
        <time>2015-05-20T09:35:01Z</time>
      </trkpt>
      <trkpt lat="43.63024" lon="5.33883">
        <ele>344.95</ele>
        <time>2015-05-20T09:35:07Z</time>
      </trkpt>
      <trkpt lat="43.63027" lon="5.33879">
        <ele>345.03</ele>
        <time>2015-05-20T09:35:11Z</time>
      </trkpt>
      <trkpt lat="43.63029" lon="5.33874">
        <ele>345.31</ele>
        <time>2015-05-20T09:35:15Z</time>
      </trkpt>
      <trkpt lat="43.63026" lon="5.33854">
        <ele>344.58</ele>
        <time>2015-05-20T09:35:30Z</time>
      </trkpt>
      <trkpt lat="43.63019" lon="5.3383">
        <ele>343.27</ele>
        <time>2015-05-20T09:35:48Z</time>
      </trkpt>
      <trkpt lat="43.63004" lon="5.33802">
        <ele>341.95</ele>
        <time>2015-05-20T09:36:09Z</time>
      </trkpt>
      <trkpt lat="43.62991" lon="5.33773">
        <ele>341.43</ele>
        <time>2015-05-20T09:36:31Z</time>
      </trkpt>
      <trkpt lat="43.62985" lon="5.33757">
        <ele>339.87</ele>
        <time>2015-05-20T09:36:50Z</time>
      </trkpt>
      <trkpt lat="43.62981" lon="5.33746">
        <ele>340.11</ele>
        <time>2015-05-20T09:37:08Z</time>
      </trkpt>
      <trkpt lat="43.62983" lon="5.3375">
        <ele>339.07</ele>
        <time>2015-05-20T09:37:22Z</time>
      </trkpt>
      <trkpt lat="43.62976" lon="5.33761">
        <ele>339.29</ele>
        <time>2015-05-20T09:37:39Z</time>
      </trkpt>
      <trkpt lat="43.62965" lon="5.33772">
        <ele>339.02</ele>
        <time>2015-05-20T09:37:56Z</time>
      </trkpt>
      <trkpt lat="43.62949" lon="5.33788">
        <ele>338.56</ele>
        <time>2015-05-20T09:38:18Z</time>
      </trkpt>
      <trkpt lat="43.62937" lon="5.33796">
        <ele>335.97</ele>
        <time>2015-05-20T09:38:38Z</time>
      </trkpt>
      <trkpt lat="43.62926" lon="5.3381">
        <ele>333.56</ele>
        <time>2015-05-20T09:38:57Z</time>
      </trkpt>
      <trkpt lat="43.6292" lon="5.33817">
        <ele>332.98</ele>
        <time>2015-05-20T09:39:15Z</time>
      </trkpt>
      <trkpt lat="43.62909" lon="5.33824">
        <ele>331.49</ele>
        <time>2015-05-20T09:39:33Z</time>
      </trkpt>
      <trkpt lat="43.629" lon="5.33827">
        <ele>332.6</ele>
        <time>2015-05-20T09:39:42Z</time>
      </trkpt>
      <trkpt lat="43.62895" lon="5.33829">
        <ele>332.02</ele>
        <time>2015-05-20T09:39:47Z</time>
      </trkpt>
      <trkpt lat="43.62881" lon="5.33832">
        <ele>331.28</ele>
        <time>2015-05-20T09:40:05Z</time>
      </trkpt>
      <trkpt lat="43.62873" lon="5.33834">
        <ele>333.5</ele>
        <time>2015-05-20T09:40:20Z</time>
      </trkpt>
      <trkpt lat="43.62862" lon="5.3384">
        <ele>334.99</ele>
        <time>2015-05-20T09:40:37Z</time>
      </trkpt>
      <trkpt lat="43.62853" lon="5.33843">
        <ele>334.64</ele>
        <time>2015-05-20T09:40:54Z</time>
      </trkpt>
      <trkpt lat="43.62844" lon="5.33848">
        <ele>334.37</ele>
        <time>2015-05-20T09:41:12Z</time>
      </trkpt>
      <trkpt lat="43.62834" lon="5.33854">
        <ele>335.27</ele>
        <time>2015-05-20T09:41:27Z</time>
      </trkpt>
      <trkpt lat="43.6282" lon="5.33861">
        <ele>335.62</ele>
        <time>2015-05-20T09:41:48Z</time>
      </trkpt>
      <trkpt lat="43.62806" lon="5.33867">
        <ele>335.82</ele>
        <time>2015-05-20T09:42:09Z</time>
      </trkpt>
      <trkpt lat="43.62797" lon="5.33868">
        <ele>335.6</ele>
        <time>2015-05-20T09:42:26Z</time>
      </trkpt>
      <trkpt lat="43.6279" lon="5.33868">
        <ele>334.93</ele>
        <time>2015-05-20T09:42:44Z</time>
      </trkpt>
      <trkpt lat="43.62782" lon="5.33867">
        <ele>332.13</ele>
        <time>2015-05-20T09:43:04Z</time>
      </trkpt>
      <trkpt lat="43.62774" lon="5.33867">
        <ele>333.03</ele>
        <time>2015-05-20T09:43:21Z</time>
      </trkpt>
      <trkpt lat="43.62763" lon="5.33868">
        <ele>335.4</ele>
        <time>2015-05-20T09:43:41Z</time>
      </trkpt>
      <trkpt lat="43.6275" lon="5.33871">
        <ele>334.72</ele>
        <time>2015-05-20T09:43:58Z</time>
      </trkpt>
      <trkpt lat="43.62735" lon="5.33872">
        <ele>335.1</ele>
        <time>2015-05-20T09:44:15Z</time>
      </trkpt>
      <trkpt lat="43.62721" lon="5.33874">
        <ele>334.75</ele>
        <time>2015-05-20T09:44:33Z</time>
      </trkpt>
      <trkpt lat="43.62716" lon="5.33871">
        <ele>333.57</ele>
        <time>2015-05-20T09:44:51Z</time>
      </trkpt>
      <trkpt lat="43.62715" lon="5.3387">
        <ele>333.47</ele>
        <time>2015-05-20T09:45:17Z</time>
      </trkpt>
      <trkpt lat="43.62712" lon="5.33865">
        <ele>332.64</ele>
        <time>2015-05-20T09:45:36Z</time>
      </trkpt>
      <trkpt lat="43.62703" lon="5.33868">
        <ele>331.86</ele>
        <time>2015-05-20T09:45:50Z</time>
      </trkpt>
      <trkpt lat="43.62695" lon="5.33871">
        <ele>331.89</ele>
        <time>2015-05-20T09:46:03Z</time>
      </trkpt>
      <trkpt lat="43.62686" lon="5.33874">
        <ele>331.58</ele>
        <time>2015-05-20T09:46:18Z</time>
      </trkpt>
      <trkpt lat="43.62678" lon="5.33877">
        <ele>332.15</ele>
        <time>2015-05-20T09:46:32Z</time>
      </trkpt>
      <trkpt lat="43.62669" lon="5.3388">
        <ele>331.97</ele>
        <time>2015-05-20T09:46:45Z</time>
      </trkpt>
      <trkpt lat="43.62662" lon="5.33882">
        <ele>331.06</ele>
        <time>2015-05-20T09:47:02Z</time>
      </trkpt>
      <trkpt lat="43.62655" lon="5.33884">
        <ele>331.64</ele>
        <time>2015-05-20T09:47:19Z</time>
      </trkpt>
      <trkpt lat="43.62649" lon="5.33886">
        <ele>331.71</ele>
        <time>2015-05-20T09:47:33Z</time>
      </trkpt>
      <trkpt lat="43.62644" lon="5.33888">
        <ele>331.86</ele>
        <time>2015-05-20T09:47:48Z</time>
      </trkpt>
      <trkpt lat="43.62634" lon="5.33892">
        <ele>331.65</ele>
        <time>2015-05-20T09:48:05Z</time>
      </trkpt>
      <trkpt lat="43.62622" lon="5.33896">
        <ele>332.26</ele>
        <time>2015-05-20T09:48:23Z</time>
      </trkpt>
      <trkpt lat="43.62607" lon="5.33905">
        <ele>331.9</ele>
        <time>2015-05-20T09:48:44Z</time>
      </trkpt>
      <trkpt lat="43.62596" lon="5.33914">
        <ele>331.55</ele>
        <time>2015-05-20T09:49:00Z</time>
      </trkpt>
      <trkpt lat="43.62584" lon="5.33923">
        <ele>331.59</ele>
        <time>2015-05-20T09:49:17Z</time>
      </trkpt>
      <trkpt lat="43.62574" lon="5.33932">
        <ele>332.1</ele>
        <time>2015-05-20T09:49:32Z</time>
      </trkpt>
      <trkpt lat="43.62571" lon="5.33934">
        <ele>332.37</ele>
        <time>2015-05-20T09:49:36Z</time>
      </trkpt>
      <trkpt lat="43.62563" lon="5.33949">
        <ele>332.1</ele>
        <time>2015-05-20T09:49:54Z</time>
      </trkpt>
      <trkpt lat="43.6256" lon="5.33958">
        <ele>332.13</ele>
        <time>2015-05-20T09:50:10Z</time>
      </trkpt>
      <trkpt lat="43.62555" lon="5.33962">
        <ele>332.76</ele>
        <time>2015-05-20T09:50:25Z</time>
      </trkpt>
      <trkpt lat="43.62551" lon="5.33957">
        <ele>332.6</ele>
        <time>2015-05-20T09:50:40Z</time>
      </trkpt>
      <trkpt lat="43.62543" lon="5.33964">
        <ele>331.19</ele>
        <time>2015-05-20T09:50:56Z</time>
      </trkpt>
      <trkpt lat="43.62538" lon="5.33965">
        <ele>330.75</ele>
        <time>2015-05-20T09:51:12Z</time>
      </trkpt>
      <trkpt lat="43.62537" lon="5.33964">
        <ele>330.44</ele>
        <time>2015-05-20T09:51:28Z</time>
      </trkpt>
      <trkpt lat="43.62537" lon="5.33967">
        <ele>330.13</ele>
        <time>2015-05-20T09:51:46Z</time>
      </trkpt>
      <trkpt lat="43.62532" lon="5.33974">
        <ele>330.41</ele>
        <time>2015-05-20T09:52:03Z</time>
      </trkpt>
      <trkpt lat="43.62534" lon="5.3398">
        <ele>329.97</ele>
        <time>2015-05-20T09:52:22Z</time>
      </trkpt>
      <trkpt lat="43.62534" lon="5.3398">
        <ele>329.51</ele>
        <time>2015-05-20T09:52:48Z</time>
      </trkpt>
      <trkpt lat="43.62534" lon="5.33981">
        <ele>328.99</ele>
        <time>2015-05-20T09:53:19Z</time>
      </trkpt>
      <trkpt lat="43.62533" lon="5.3398">
        <ele>328.67</ele>
        <time>2015-05-20T09:53:50Z</time>
      </trkpt>
      <trkpt lat="43.62533" lon="5.3398">
        <ele>327.98</ele>
        <time>2015-05-20T09:54:29Z</time>
      </trkpt>
      <trkpt lat="43.62533" lon="5.33982">
        <ele>329.32</ele>
        <time>2015-05-20T09:54:59Z</time>
      </trkpt>
      <trkpt lat="43.62535" lon="5.33982">
        <ele>328.87</ele>
        <time>2015-05-20T09:55:34Z</time>
      </trkpt>
      <trkpt lat="43.62534" lon="5.33982">
        <ele>329.46</ele>
        <time>2015-05-20T09:56:27Z</time>
      </trkpt>
      <trkpt lat="43.62535" lon="5.33984">
        <ele>328.66</ele>
        <time>2015-05-20T09:57:07Z</time>
      </trkpt>
      <trkpt lat="43.62534" lon="5.33982">
        <ele>329.41</ele>
        <time>2015-05-20T09:57:51Z</time>
      </trkpt>
      <trkpt lat="43.62532" lon="5.33982">
        <ele>329.75</ele>
        <time>2015-05-20T09:58:44Z</time>
      </trkpt>
      <trkpt lat="43.62532" lon="5.33981">
        <ele>329.59</ele>
        <time>2015-05-20T09:59:30Z</time>
      </trkpt>
      <trkpt lat="43.62532" lon="5.33981">
        <ele>329.84</ele>
        <time>2015-05-20T10:00:14Z</time>
      </trkpt>
      <trkpt lat="43.62533" lon="5.33982">
        <ele>329.88</ele>
        <time>2015-05-20T10:00:57Z</time>
      </trkpt>
      <trkpt lat="43.62532" lon="5.33983">
        <ele>329.45</ele>
        <time>2015-05-20T10:01:38Z</time>
      </trkpt>
      <trkpt lat="43.62531" lon="5.33984">
        <ele>328.79</ele>
        <time>2015-05-20T10:02:31Z</time>
      </trkpt>
      <trkpt lat="43.62531" lon="5.33985">
        <ele>330</ele>
        <time>2015-05-20T10:03:24Z</time>
      </trkpt>
      <trkpt lat="43.62532" lon="5.33984">
        <ele>329.91</ele>
        <time>2015-05-20T10:04:24Z</time>
      </trkpt>
      <trkpt lat="43.62533" lon="5.33984">
        <ele>330.37</ele>
        <time>2015-05-20T10:06:22Z</time>
      </trkpt>
      <trkpt lat="43.62532" lon="5.33983">
        <ele>330.26</ele>
        <time>2015-05-20T10:07:43Z</time>
      </trkpt>
      <trkpt lat="43.62532" lon="5.33985">
        <ele>329.22</ele>
        <time>2015-05-20T10:08:40Z</time>
      </trkpt>
      <trkpt lat="43.62533" lon="5.33984">
        <ele>330.16</ele>
        <time>2015-05-20T10:10:14Z</time>
      </trkpt>
      <trkpt lat="43.62532" lon="5.33984">
        <ele>328.85</ele>
        <time>2015-05-20T10:11:29Z</time>
      </trkpt>
      <trkpt lat="43.62533" lon="5.33985">
        <ele>329.58</ele>
        <time>2015-05-20T10:12:52Z</time>
      </trkpt>
      <trkpt lat="43.62533" lon="5.33984">
        <ele>329.28</ele>
        <time>2015-05-20T10:13:41Z</time>
      </trkpt>
      <trkpt lat="43.62535" lon="5.33984">
        <ele>329.37</ele>
        <time>2015-05-20T10:14:53Z</time>
      </trkpt>
      <trkpt lat="43.62534" lon="5.33985">
        <ele>330.11</ele>
        <time>2015-05-20T10:16:12Z</time>
      </trkpt>
      <trkpt lat="43.62535" lon="5.33983">
        <ele>330.08</ele>
        <time>2015-05-20T10:17:43Z</time>
      </trkpt>
      <trkpt lat="43.62535" lon="5.33983">
        <ele>330.15</ele>
        <time>2015-05-20T10:19:09Z</time>
      </trkpt>
      <trkpt lat="43.62535" lon="5.33983">
        <ele>329.28</ele>
        <time>2015-05-20T10:20:39Z</time>
      </trkpt>
      <trkpt lat="43.62534" lon="5.33984">
        <ele>329.8</ele>
        <time>2015-05-20T10:22:23Z</time>
      </trkpt>
      <trkpt lat="43.62532" lon="5.33986">
        <ele>329.69</ele>
        <time>2015-05-20T10:24:15Z</time>
      </trkpt>
      <trkpt lat="43.62531" lon="5.33984">
        <ele>328.96</ele>
        <time>2015-05-20T10:25:53Z</time>
      </trkpt>
      <trkpt lat="43.62532" lon="5.33985">
        <ele>329.26</ele>
        <time>2015-05-20T10:27:03Z</time>
      </trkpt>
      <trkpt lat="43.62532" lon="5.33983">
        <ele>328.48</ele>
        <time>2015-05-20T10:28:14Z</time>
      </trkpt>
      <trkpt lat="43.62533" lon="5.33983">
        <ele>329.12</ele>
        <time>2015-05-20T10:29:38Z</time>
      </trkpt>
      <trkpt lat="43.62534" lon="5.33985">
        <ele>328.28</ele>
        <time>2015-05-20T10:30:53Z</time>
      </trkpt>
      <trkpt lat="43.62535" lon="5.33985">
        <ele>328.29</ele>
        <time>2015-05-20T10:32:09Z</time>
      </trkpt>
      <trkpt lat="43.62533" lon="5.33983">
        <ele>327.15</ele>
        <time>2015-05-20T10:33:39Z</time>
      </trkpt>
      <trkpt lat="43.62533" lon="5.33984">
        <ele>327.59</ele>
        <time>2015-05-20T10:34:18Z</time>
      </trkpt>
      <trkpt lat="43.62534" lon="5.33985">
        <ele>326.49</ele>
        <time>2015-05-20T10:35:31Z</time>
      </trkpt>
      <trkpt lat="43.62534" lon="5.33986">
        <ele>326.81</ele>
        <time>2015-05-20T10:36:07Z</time>
      </trkpt>
      <trkpt lat="43.62533" lon="5.33985">
        <ele>327.08</ele>
        <time>2015-05-20T10:36:53Z</time>
      </trkpt>
      <trkpt lat="43.62532" lon="5.33986">
        <ele>326.41</ele>
        <time>2015-05-20T10:37:35Z</time>
      </trkpt>
      <trkpt lat="43.62534" lon="5.33986">
        <ele>326.21</ele>
        <time>2015-05-20T10:38:56Z</time>
      </trkpt>
      <trkpt lat="43.62534" lon="5.33986">
        <ele>325.52</ele>
        <time>2015-05-20T10:40:11Z</time>
      </trkpt>
      <trkpt lat="43.62534" lon="5.33985">
        <ele>326.27</ele>
        <time>2015-05-20T10:41:13Z</time>
      </trkpt>
      <trkpt lat="43.62534" lon="5.33986">
        <ele>326.31</ele>
        <time>2015-05-20T10:41:58Z</time>
      </trkpt>
      <trkpt lat="43.62534" lon="5.33987">
        <ele>326.57</ele>
        <time>2015-05-20T10:42:26Z</time>
      </trkpt>
      <trkpt lat="43.62534" lon="5.33987">
        <ele>326.32</ele>
        <time>2015-05-20T10:44:41Z</time>
      </trkpt>
      <trkpt lat="43.62533" lon="5.33985">
        <ele>326.66</ele>
        <time>2015-05-20T10:45:04Z</time>
      </trkpt>
      <trkpt lat="43.62531" lon="5.33984">
        <ele>327.92</ele>
        <time>2015-05-20T10:45:24Z</time>
      </trkpt>
      <trkpt lat="43.6253" lon="5.33983">
        <ele>327.24</ele>
        <time>2015-05-20T10:45:48Z</time>
      </trkpt>
      <trkpt lat="43.6253" lon="5.33982">
        <ele>326.8</ele>
        <time>2015-05-20T10:46:10Z</time>
      </trkpt>
      <trkpt lat="43.6253" lon="5.33982">
        <ele>327.12</ele>
        <time>2015-05-20T10:46:28Z</time>
      </trkpt>
      <trkpt lat="43.6253" lon="5.33984">
        <ele>327.86</ele>
        <time>2015-05-20T10:47:09Z</time>
      </trkpt>
      <trkpt lat="43.62531" lon="5.33984">
        <ele>326.97</ele>
        <time>2015-05-20T10:47:26Z</time>
      </trkpt>
      <trkpt lat="43.62531" lon="5.33984">
        <ele>327.46</ele>
        <time>2015-05-20T10:47:55Z</time>
      </trkpt>
      <trkpt lat="43.6253" lon="5.33984">
        <ele>327.07</ele>
        <time>2015-05-20T10:48:17Z</time>
      </trkpt>
      <trkpt lat="43.6253" lon="5.33984">
        <ele>327.18</ele>
        <time>2015-05-20T10:48:49Z</time>
      </trkpt>
      <trkpt lat="43.62529" lon="5.33984">
        <ele>327.16</ele>
        <time>2015-05-20T10:49:17Z</time>
      </trkpt>
      <trkpt lat="43.62529" lon="5.33983">
        <ele>327.35</ele>
        <time>2015-05-20T10:49:41Z</time>
      </trkpt>
      <trkpt lat="43.6253" lon="5.33981">
        <ele>326.91</ele>
        <time>2015-05-20T10:50:09Z</time>
      </trkpt>
      <trkpt lat="43.62532" lon="5.33981">
        <ele>327.79</ele>
        <time>2015-05-20T10:50:32Z</time>
      </trkpt>
      <trkpt lat="43.62532" lon="5.33981">
        <ele>327.88</ele>
        <time>2015-05-20T10:50:50Z</time>
      </trkpt>
      <trkpt lat="43.6253" lon="5.33982">
        <ele>327.58</ele>
        <time>2015-05-20T10:51:05Z</time>
      </trkpt>
      <trkpt lat="43.62529" lon="5.3398">
        <ele>326.48</ele>
        <time>2015-05-20T10:51:28Z</time>
      </trkpt>
      <trkpt lat="43.62529" lon="5.33979">
        <ele>326.39</ele>
        <time>2015-05-20T10:51:48Z</time>
      </trkpt>
      <trkpt lat="43.62527" lon="5.3398">
        <ele>326.63</ele>
        <time>2015-05-20T10:52:08Z</time>
      </trkpt>
      <trkpt lat="43.62525" lon="5.3398">
        <ele>326.81</ele>
        <time>2015-05-20T10:52:32Z</time>
      </trkpt>
      <trkpt lat="43.62526" lon="5.3398">
        <ele>327.6</ele>
        <time>2015-05-20T10:52:58Z</time>
      </trkpt>
      <trkpt lat="43.62528" lon="5.33979">
        <ele>327.57</ele>
        <time>2015-05-20T10:53:20Z</time>
      </trkpt>
      <trkpt lat="43.6253" lon="5.33979">
        <ele>327.49</ele>
        <time>2015-05-20T10:53:49Z</time>
      </trkpt>
      <trkpt lat="43.6253" lon="5.33979">
        <ele>327.08</ele>
        <time>2015-05-20T10:54:20Z</time>
      </trkpt>
      <trkpt lat="43.6253" lon="5.33979">
        <ele>327.26</ele>
        <time>2015-05-20T10:54:40Z</time>
      </trkpt>
      <trkpt lat="43.62529" lon="5.3398">
        <ele>326.77</ele>
        <time>2015-05-20T10:55:09Z</time>
      </trkpt>
      <trkpt lat="43.6253" lon="5.33977">
        <ele>326.26</ele>
        <time>2015-05-20T10:55:56Z</time>
      </trkpt>
      <trkpt lat="43.62531" lon="5.33974">
        <ele>326.33</ele>
        <time>2015-05-20T10:56:09Z</time>
      </trkpt>
      <trkpt lat="43.62538" lon="5.33971">
        <ele>326.47</ele>
        <time>2015-05-20T10:56:24Z</time>
      </trkpt>
      <trkpt lat="43.62545" lon="5.33976">
        <ele>327.06</ele>
        <time>2015-05-20T10:56:42Z</time>
      </trkpt>
      <trkpt lat="43.62544" lon="5.33983">
        <ele>327.26</ele>
        <time>2015-05-20T10:56:59Z</time>
      </trkpt>
      <trkpt lat="43.62545" lon="5.33988">
        <ele>327.55</ele>
        <time>2015-05-20T10:57:05Z</time>
      </trkpt>
      <trkpt lat="43.62544" lon="5.33996">
        <ele>327.4</ele>
        <time>2015-05-20T10:57:11Z</time>
      </trkpt>
      <trkpt lat="43.62544" lon="5.34006">
        <ele>327.31</ele>
        <time>2015-05-20T10:57:24Z</time>
      </trkpt>
      <trkpt lat="43.62549" lon="5.34017">
        <ele>327.71</ele>
        <time>2015-05-20T10:57:40Z</time>
      </trkpt>
      <trkpt lat="43.62558" lon="5.3403">
        <ele>327.79</ele>
        <time>2015-05-20T10:57:59Z</time>
      </trkpt>
      <trkpt lat="43.62569" lon="5.34039">
        <ele>327.31</ele>
        <time>2015-05-20T10:58:15Z</time>
      </trkpt>
      <trkpt lat="43.62582" lon="5.34048">
        <ele>327.88</ele>
        <time>2015-05-20T10:58:34Z</time>
      </trkpt>
      <trkpt lat="43.62597" lon="5.34058">
        <ele>326.85</ele>
        <time>2015-05-20T10:58:56Z</time>
      </trkpt>
      <trkpt lat="43.62607" lon="5.34064">
        <ele>327.49</ele>
        <time>2015-05-20T10:59:08Z</time>
      </trkpt>
      <trkpt lat="43.6262" lon="5.34074">
        <ele>327.28</ele>
        <time>2015-05-20T10:59:23Z</time>
      </trkpt>
      <trkpt lat="43.62635" lon="5.34093">
        <ele>327.66</ele>
        <time>2015-05-20T10:59:42Z</time>
      </trkpt>
      <trkpt lat="43.62637" lon="5.34112">
        <ele>327</ele>
        <time>2015-05-20T10:59:58Z</time>
      </trkpt>
      <trkpt lat="43.62629" lon="5.34133">
        <ele>327.17</ele>
        <time>2015-05-20T11:00:15Z</time>
      </trkpt>
      <trkpt lat="43.62624" lon="5.34136">
        <ele>327.09</ele>
        <time>2015-05-20T11:00:20Z</time>
      </trkpt>
      <trkpt lat="43.62604" lon="5.34139">
        <ele>325.91</ele>
        <time>2015-05-20T11:00:40Z</time>
      </trkpt>
      <trkpt lat="43.62585" lon="5.34144">
        <ele>326.69</ele>
        <time>2015-05-20T11:01:01Z</time>
      </trkpt>
      <trkpt lat="43.62563" lon="5.34149">
        <ele>326.97</ele>
        <time>2015-05-20T11:01:23Z</time>
      </trkpt>
      <trkpt lat="43.62542" lon="5.34152">
        <ele>326.81</ele>
        <time>2015-05-20T11:01:44Z</time>
      </trkpt>
      <trkpt lat="43.62523" lon="5.34155">
        <ele>327.22</ele>
        <time>2015-05-20T11:02:03Z</time>
      </trkpt>
      <trkpt lat="43.62504" lon="5.34159">
        <ele>327.08</ele>
        <time>2015-05-20T11:02:21Z</time>
      </trkpt>
      <trkpt lat="43.62487" lon="5.34163">
        <ele>326.5</ele>
        <time>2015-05-20T11:02:38Z</time>
      </trkpt>
      <trkpt lat="43.62469" lon="5.34167">
        <ele>326.64</ele>
        <time>2015-05-20T11:02:54Z</time>
      </trkpt>
      <trkpt lat="43.62453" lon="5.3417">
        <ele>326.86</ele>
        <time>2015-05-20T11:03:11Z</time>
      </trkpt>
      <trkpt lat="43.62444" lon="5.34176">
        <ele>327.18</ele>
        <time>2015-05-20T11:03:21Z</time>
      </trkpt>
      <trkpt lat="43.62439" lon="5.34182">
        <ele>327.27</ele>
        <time>2015-05-20T11:03:28Z</time>
      </trkpt>
      <trkpt lat="43.62433" lon="5.34193">
        <ele>327.13</ele>
        <time>2015-05-20T11:03:45Z</time>
      </trkpt>
      <trkpt lat="43.62428" lon="5.34203">
        <ele>327.23</ele>
        <time>2015-05-20T11:03:59Z</time>
      </trkpt>
      <trkpt lat="43.62425" lon="5.34232">
        <ele>326.86</ele>
        <time>2015-05-20T11:04:19Z</time>
      </trkpt>
      <trkpt lat="43.62429" lon="5.34251">
        <ele>327.19</ele>
        <time>2015-05-20T11:04:35Z</time>
      </trkpt>
      <trkpt lat="43.62434" lon="5.34258">
        <ele>326.94</ele>
        <time>2015-05-20T11:04:42Z</time>
      </trkpt>
      <trkpt lat="43.6245" lon="5.34275">
        <ele>327.08</ele>
        <time>2015-05-20T11:05:00Z</time>
      </trkpt>
      <trkpt lat="43.6246" lon="5.34294">
        <ele>326.91</ele>
        <time>2015-05-20T11:05:15Z</time>
      </trkpt>
      <trkpt lat="43.62458" lon="5.34307">
        <ele>326.23</ele>
        <time>2015-05-20T11:05:26Z</time>
      </trkpt>
      <trkpt lat="43.62454" lon="5.34316">
        <ele>326.85</ele>
        <time>2015-05-20T11:05:39Z</time>
      </trkpt>
      <trkpt lat="43.62451" lon="5.3432">
        <ele>327.15</ele>
        <time>2015-05-20T11:05:43Z</time>
      </trkpt>
      <trkpt lat="43.62434" lon="5.34318">
        <ele>326.77</ele>
        <time>2015-05-20T11:06:00Z</time>
      </trkpt>
      <trkpt lat="43.62411" lon="5.34316">
        <ele>326.99</ele>
        <time>2015-05-20T11:06:21Z</time>
      </trkpt>
      <trkpt lat="43.62388" lon="5.34328">
        <ele>326.56</ele>
        <time>2015-05-20T11:06:43Z</time>
      </trkpt>
      <trkpt lat="43.62374" lon="5.34352">
        <ele>325.4</ele>
        <time>2015-05-20T11:07:03Z</time>
      </trkpt>
      <trkpt lat="43.62365" lon="5.34378">
        <ele>326.12</ele>
        <time>2015-05-20T11:07:22Z</time>
      </trkpt>
      <trkpt lat="43.62372" lon="5.34402">
        <ele>325.09</ele>
        <time>2015-05-20T11:07:39Z</time>
      </trkpt>
      <trkpt lat="43.62385" lon="5.34429">
        <ele>324.67</ele>
        <time>2015-05-20T11:08:00Z</time>
      </trkpt>
      <trkpt lat="43.62394" lon="5.34456">
        <ele>324.96</ele>
        <time>2015-05-20T11:08:20Z</time>
      </trkpt>
      <trkpt lat="43.62393" lon="5.34473">
        <ele>325.44</ele>
        <time>2015-05-20T11:08:39Z</time>
      </trkpt>
      <trkpt lat="43.62391" lon="5.34478">
        <ele>326.64</ele>
        <time>2015-05-20T11:08:47Z</time>
      </trkpt>
      <trkpt lat="43.62388" lon="5.34485">
        <ele>325.62</ele>
        <time>2015-05-20T11:09:03Z</time>
      </trkpt>
      <trkpt lat="43.62388" lon="5.34485">
        <ele>324.67</ele>
        <time>2015-05-20T11:09:18Z</time>
      </trkpt>
      <trkpt lat="43.62387" lon="5.34486">
        <ele>324.85</ele>
        <time>2015-05-20T11:09:32Z</time>
      </trkpt>
      <trkpt lat="43.62386" lon="5.34487">
        <ele>325.15</ele>
        <time>2015-05-20T11:09:52Z</time>
      </trkpt>
      <trkpt lat="43.62385" lon="5.34487">
        <ele>324.43</ele>
        <time>2015-05-20T11:10:07Z</time>
      </trkpt>
      <trkpt lat="43.62382" lon="5.3449">
        <ele>324.39</ele>
        <time>2015-05-20T11:10:15Z</time>
      </trkpt>
      <trkpt lat="43.62377" lon="5.34492">
        <ele>324.63</ele>
        <time>2015-05-20T11:10:19Z</time>
      </trkpt>
      <trkpt lat="43.62357" lon="5.34484">
        <ele>324.33</ele>
        <time>2015-05-20T11:10:39Z</time>
      </trkpt>
      <trkpt lat="43.62353" lon="5.34482">
        <ele>324.76</ele>
        <time>2015-05-20T11:10:52Z</time>
      </trkpt>
      <trkpt lat="43.62352" lon="5.34482">
        <ele>324.67</ele>
        <time>2015-05-20T11:11:06Z</time>
      </trkpt>
      <trkpt lat="43.62352" lon="5.34482">
        <ele>323.8</ele>
        <time>2015-05-20T11:11:24Z</time>
      </trkpt>
      <trkpt lat="43.6235" lon="5.34481">
        <ele>324.14</ele>
        <time>2015-05-20T11:11:37Z</time>
      </trkpt>
      <trkpt lat="43.62345" lon="5.34477">
        <ele>324.93</ele>
        <time>2015-05-20T11:11:42Z</time>
      </trkpt>
      <trkpt lat="43.62328" lon="5.34465">
        <ele>325.25</ele>
        <time>2015-05-20T11:12:01Z</time>
      </trkpt>
      <trkpt lat="43.62324" lon="5.34463">
        <ele>325.27</ele>
        <time>2015-05-20T11:12:05Z</time>
      </trkpt>
      <trkpt lat="43.623" lon="5.34469">
        <ele>324.6</ele>
        <time>2015-05-20T11:12:27Z</time>
      </trkpt>
      <trkpt lat="43.62283" lon="5.34474">
        <ele>324.96</ele>
        <time>2015-05-20T11:12:43Z</time>
      </trkpt>
      <trkpt lat="43.62279" lon="5.34476">
        <ele>324.93</ele>
        <time>2015-05-20T11:12:47Z</time>
      </trkpt>
      <trkpt lat="43.62268" lon="5.34483">
        <ele>325.04</ele>
        <time>2015-05-20T11:13:01Z</time>
      </trkpt>
      <trkpt lat="43.62252" lon="5.34493">
        <ele>325.26</ele>
        <time>2015-05-20T11:13:18Z</time>
      </trkpt>
      <trkpt lat="43.62227" lon="5.34506">
        <ele>325.5</ele>
        <time>2015-05-20T11:13:41Z</time>
      </trkpt>
      <trkpt lat="43.62207" lon="5.34496">
        <ele>325.85</ele>
        <time>2015-05-20T11:14:00Z</time>
      </trkpt>
      <trkpt lat="43.62187" lon="5.34481">
        <ele>325.62</ele>
        <time>2015-05-20T11:14:22Z</time>
      </trkpt>
      <trkpt lat="43.62185" lon="5.3448">
        <ele>325.56</ele>
        <time>2015-05-20T11:14:24Z</time>
      </trkpt>
      <trkpt lat="43.62164" lon="5.34491">
        <ele>325.27</ele>
        <time>2015-05-20T11:14:45Z</time>
      </trkpt>
      <trkpt lat="43.62152" lon="5.34518">
        <ele>325.4</ele>
        <time>2015-05-20T11:15:05Z</time>
      </trkpt>
      <trkpt lat="43.62151" lon="5.3452">
        <ele>325.43</ele>
        <time>2015-05-20T11:15:07Z</time>
      </trkpt>
      <trkpt lat="43.6215" lon="5.34522">
        <ele>325.99</ele>
        <time>2015-05-20T11:15:19Z</time>
      </trkpt>
      <trkpt lat="43.6215" lon="5.34522">
        <ele>325.74</ele>
        <time>2015-05-20T11:15:35Z</time>
      </trkpt>
      <trkpt lat="43.6215" lon="5.34521">
        <ele>325.85</ele>
        <time>2015-05-20T11:15:55Z</time>
      </trkpt>
      <trkpt lat="43.6215" lon="5.34522">
        <ele>325.26</ele>
        <time>2015-05-20T11:16:16Z</time>
      </trkpt>
      <trkpt lat="43.6215" lon="5.34522">
        <ele>325.42</ele>
        <time>2015-05-20T11:16:36Z</time>
      </trkpt>
      <trkpt lat="43.62151" lon="5.34523">
        <ele>325.15</ele>
        <time>2015-05-20T11:16:46Z</time>
      </trkpt>
      <trkpt lat="43.6215" lon="5.34527">
        <ele>324.71</ele>
        <time>2015-05-20T11:16:49Z</time>
      </trkpt>
      <trkpt lat="43.62133" lon="5.34564">
        <ele>324.28</ele>
        <time>2015-05-20T11:17:14Z</time>
      </trkpt>
      <trkpt lat="43.62125" lon="5.3459">
        <ele>324.65</ele>
        <time>2015-05-20T11:17:32Z</time>
      </trkpt>
      <trkpt lat="43.6212" lon="5.34625">
        <ele>324.54</ele>
        <time>2015-05-20T11:17:53Z</time>
      </trkpt>
      <trkpt lat="43.62117" lon="5.34655">
        <ele>324.54</ele>
        <time>2015-05-20T11:18:12Z</time>
      </trkpt>
      <trkpt lat="43.6212" lon="5.34663">
        <ele>324.55</ele>
        <time>2015-05-20T11:18:18Z</time>
      </trkpt>
      <trkpt lat="43.62124" lon="5.34666">
        <ele>324.64</ele>
        <time>2015-05-20T11:18:22Z</time>
      </trkpt>
      <trkpt lat="43.62146" lon="5.34673">
        <ele>324.86</ele>
        <time>2015-05-20T11:18:43Z</time>
      </trkpt>
      <trkpt lat="43.62156" lon="5.34676">
        <ele>324.4</ele>
        <time>2015-05-20T11:18:56Z</time>
      </trkpt>
      <trkpt lat="43.62169" lon="5.34682">
        <ele>324.54</ele>
        <time>2015-05-20T11:19:12Z</time>
      </trkpt>
      <trkpt lat="43.62171" lon="5.34682">
        <ele>324.57</ele>
        <time>2015-05-20T11:19:14Z</time>
      </trkpt>
      <trkpt lat="43.62181" lon="5.34683">
        <ele>325.4</ele>
        <time>2015-05-20T11:19:30Z</time>
      </trkpt>
      <trkpt lat="43.62182" lon="5.34683">
        <ele>325.16</ele>
        <time>2015-05-20T11:19:34Z</time>
      </trkpt>
      <trkpt lat="43.62187" lon="5.34685">
        <ele>325.09</ele>
        <time>2015-05-20T11:19:38Z</time>
      </trkpt>
      <trkpt lat="43.62214" lon="5.34692">
        <ele>324.56</ele>
        <time>2015-05-20T11:19:57Z</time>
      </trkpt>
      <trkpt lat="43.62237" lon="5.34702">
        <ele>323.87</ele>
        <time>2015-05-20T11:20:16Z</time>
      </trkpt>
      <trkpt lat="43.62238" lon="5.34707">
        <ele>323.44</ele>
        <time>2015-05-20T11:20:21Z</time>
      </trkpt>
      <trkpt lat="43.62239" lon="5.3471">
        <ele>323.25</ele>
        <time>2015-05-20T11:20:23Z</time>
      </trkpt>
      <trkpt lat="43.62237" lon="5.34719">
        <ele>323</ele>
        <time>2015-05-20T11:20:29Z</time>
      </trkpt>
      <trkpt lat="43.62219" lon="5.34738">
        <ele>323.83</ele>
        <time>2015-05-20T11:20:47Z</time>
      </trkpt>
      <trkpt lat="43.62202" lon="5.34748">
        <ele>324.55</ele>
        <time>2015-05-20T11:21:01Z</time>
      </trkpt>
      <trkpt lat="43.62182" lon="5.34761">
        <ele>323.9</ele>
        <time>2015-05-20T11:21:16Z</time>
      </trkpt>
      <trkpt lat="43.62158" lon="5.34786">
        <ele>323.61</ele>
        <time>2015-05-20T11:21:37Z</time>
      </trkpt>
      <trkpt lat="43.62154" lon="5.34819">
        <ele>323.84</ele>
        <time>2015-05-20T11:21:59Z</time>
      </trkpt>
      <trkpt lat="43.6216" lon="5.34845">
        <ele>323.93</ele>
        <time>2015-05-20T11:22:17Z</time>
      </trkpt>
      <trkpt lat="43.62161" lon="5.34863">
        <ele>324.17</ele>
        <time>2015-05-20T11:22:33Z</time>
      </trkpt>
      <trkpt lat="43.62143" lon="5.34879">
        <ele>323.8</ele>
        <time>2015-05-20T11:22:51Z</time>
      </trkpt>
      <trkpt lat="43.62118" lon="5.34867">
        <ele>324.16</ele>
        <time>2015-05-20T11:23:11Z</time>
      </trkpt>
      <trkpt lat="43.62097" lon="5.34843">
        <ele>324.41</ele>
        <time>2015-05-20T11:23:31Z</time>
      </trkpt>
      <trkpt lat="43.62072" lon="5.34836">
        <ele>324.32</ele>
        <time>2015-05-20T11:23:49Z</time>
      </trkpt>
      <trkpt lat="43.6205" lon="5.34853">
        <ele>324.18</ele>
        <time>2015-05-20T11:24:08Z</time>
      </trkpt>
      <trkpt lat="43.62041" lon="5.34877">
        <ele>324.16</ele>
        <time>2015-05-20T11:24:23Z</time>
      </trkpt>
      <trkpt lat="43.62036" lon="5.34905">
        <ele>323.33</ele>
        <time>2015-05-20T11:24:42Z</time>
      </trkpt>
      <trkpt lat="43.62037" lon="5.34933">
        <ele>323.97</ele>
        <time>2015-05-20T11:25:02Z</time>
      </trkpt>
      <trkpt lat="43.62043" lon="5.34954">
        <ele>324.39</ele>
        <time>2015-05-20T11:25:17Z</time>
      </trkpt>
      <trkpt lat="43.62052" lon="5.34979">
        <ele>324.53</ele>
        <time>2015-05-20T11:25:36Z</time>
      </trkpt>
      <trkpt lat="43.62059" lon="5.35002">
        <ele>325.14</ele>
        <time>2015-05-20T11:25:54Z</time>
      </trkpt>
      <trkpt lat="43.62063" lon="5.35027">
        <ele>325.66</ele>
        <time>2015-05-20T11:26:12Z</time>
      </trkpt>
      <trkpt lat="43.62062" lon="5.35041">
        <ele>325.09</ele>
        <time>2015-05-20T11:26:21Z</time>
      </trkpt>
      <trkpt lat="43.62059" lon="5.35073">
        <ele>324.61</ele>
        <time>2015-05-20T11:26:43Z</time>
      </trkpt>
      <trkpt lat="43.62057" lon="5.35104">
        <ele>324.83</ele>
        <time>2015-05-20T11:27:06Z</time>
      </trkpt>
      <trkpt lat="43.62054" lon="5.35121">
        <ele>324.97</ele>
        <time>2015-05-20T11:27:21Z</time>
      </trkpt>
      <trkpt lat="43.62054" lon="5.35133">
        <ele>325.09</ele>
        <time>2015-05-20T11:27:30Z</time>
      </trkpt>
      <trkpt lat="43.62049" lon="5.35157">
        <ele>325.11</ele>
        <time>2015-05-20T11:27:47Z</time>
      </trkpt>
      <trkpt lat="43.62041" lon="5.35175">
        <ele>324.36</ele>
        <time>2015-05-20T11:28:02Z</time>
      </trkpt>
      <trkpt lat="43.6203" lon="5.35192">
        <ele>324.94</ele>
        <time>2015-05-20T11:28:18Z</time>
      </trkpt>
      <trkpt lat="43.62025" lon="5.35208">
        <ele>324.49</ele>
        <time>2015-05-20T11:28:33Z</time>
      </trkpt>
      <trkpt lat="43.62023" lon="5.35213">
        <ele>324.64</ele>
        <time>2015-05-20T11:28:37Z</time>
      </trkpt>
      <trkpt lat="43.62019" lon="5.35232">
        <ele>325</ele>
        <time>2015-05-20T11:28:51Z</time>
      </trkpt>
      <trkpt lat="43.62018" lon="5.35243">
        <ele>324.71</ele>
        <time>2015-05-20T11:28:59Z</time>
      </trkpt>
      <trkpt lat="43.6202" lon="5.35255">
        <ele>325.23</ele>
        <time>2015-05-20T11:29:07Z</time>
      </trkpt>
      <trkpt lat="43.62021" lon="5.35258">
        <ele>325.37</ele>
        <time>2015-05-20T11:29:09Z</time>
      </trkpt>
      <trkpt lat="43.62022" lon="5.35261">
        <ele>325.43</ele>
        <time>2015-05-20T11:29:11Z</time>
      </trkpt>
      <trkpt lat="43.62039" lon="5.35279">
        <ele>326.63</ele>
        <time>2015-05-20T11:29:32Z</time>
      </trkpt>
      <trkpt lat="43.62052" lon="5.35286">
        <ele>326.67</ele>
        <time>2015-05-20T11:29:48Z</time>
      </trkpt>
      <trkpt lat="43.62053" lon="5.35287">
        <ele>324.88</ele>
        <time>2015-05-20T11:30:08Z</time>
      </trkpt>
      <trkpt lat="43.62054" lon="5.35287">
        <ele>324.6</ele>
        <time>2015-05-20T11:30:33Z</time>
      </trkpt>
      <trkpt lat="43.62056" lon="5.35288">
        <ele>324.54</ele>
        <time>2015-05-20T11:30:55Z</time>
      </trkpt>
      <trkpt lat="43.62057" lon="5.35289">
        <ele>325.35</ele>
        <time>2015-05-20T11:31:26Z</time>
      </trkpt>
      <trkpt lat="43.6207" lon="5.35289">
        <ele>325.7</ele>
        <time>2015-05-20T11:31:48Z</time>
      </trkpt>
      <trkpt lat="43.62084" lon="5.3529">
        <ele>324.68</ele>
        <time>2015-05-20T11:32:07Z</time>
      </trkpt>
      <trkpt lat="43.62094" lon="5.35293">
        <ele>324.92</ele>
        <time>2015-05-20T11:32:22Z</time>
      </trkpt>
      <trkpt lat="43.62104" lon="5.35312">
        <ele>325.34</ele>
        <time>2015-05-20T11:32:41Z</time>
      </trkpt>
      <trkpt lat="43.62106" lon="5.35323">
        <ele>325.37</ele>
        <time>2015-05-20T11:32:51Z</time>
      </trkpt>
      <trkpt lat="43.62111" lon="5.35342">
        <ele>325.09</ele>
        <time>2015-05-20T11:33:07Z</time>
      </trkpt>
      <trkpt lat="43.62107" lon="5.35356">
        <ele>325.16</ele>
        <time>2015-05-20T11:33:23Z</time>
      </trkpt>
      <trkpt lat="43.62104" lon="5.35357">
        <ele>325.39</ele>
        <time>2015-05-20T11:33:26Z</time>
      </trkpt>
      <trkpt lat="43.62089" lon="5.35358">
        <ele>325.39</ele>
        <time>2015-05-20T11:33:41Z</time>
      </trkpt>
      <trkpt lat="43.62073" lon="5.35358">
        <ele>324.42</ele>
        <time>2015-05-20T11:33:57Z</time>
      </trkpt>
      <trkpt lat="43.62064" lon="5.3536">
        <ele>324.41</ele>
        <time>2015-05-20T11:34:10Z</time>
      </trkpt>
      <trkpt lat="43.62045" lon="5.3537">
        <ele>324.42</ele>
        <time>2015-05-20T11:34:29Z</time>
      </trkpt>
      <trkpt lat="43.62028" lon="5.35372">
        <ele>324.74</ele>
        <time>2015-05-20T11:34:45Z</time>
      </trkpt>
      <trkpt lat="43.62012" lon="5.35371">
        <ele>324.82</ele>
        <time>2015-05-20T11:35:01Z</time>
      </trkpt>
      <trkpt lat="43.61994" lon="5.35369">
        <ele>325.9</ele>
        <time>2015-05-20T11:35:20Z</time>
      </trkpt>
      <trkpt lat="43.61975" lon="5.35367">
        <ele>325.39</ele>
        <time>2015-05-20T11:35:40Z</time>
      </trkpt>
      <trkpt lat="43.61966" lon="5.35369">
        <ele>325.24</ele>
        <time>2015-05-20T11:35:50Z</time>
      </trkpt>
      <trkpt lat="43.61956" lon="5.35377">
        <ele>325.02</ele>
        <time>2015-05-20T11:36:01Z</time>
      </trkpt>
      <trkpt lat="43.61946" lon="5.35397">
        <ele>325.18</ele>
        <time>2015-05-20T11:36:20Z</time>
      </trkpt>
      <trkpt lat="43.61936" lon="5.35417">
        <ele>325.78</ele>
        <time>2015-05-20T11:36:37Z</time>
      </trkpt>
      <trkpt lat="43.61928" lon="5.35436">
        <ele>325.77</ele>
        <time>2015-05-20T11:36:53Z</time>
      </trkpt>
      <trkpt lat="43.61922" lon="5.35457">
        <ele>326.25</ele>
        <time>2015-05-20T11:37:10Z</time>
      </trkpt>
      <trkpt lat="43.61912" lon="5.35477">
        <ele>325.7</ele>
        <time>2015-05-20T11:37:27Z</time>
      </trkpt>
      <trkpt lat="43.61906" lon="5.35499">
        <ele>325.4</ele>
        <time>2015-05-20T11:37:44Z</time>
      </trkpt>
      <trkpt lat="43.61901" lon="5.35506">
        <ele>324.86</ele>
        <time>2015-05-20T11:38:05Z</time>
      </trkpt>
      <trkpt lat="43.61897" lon="5.35507">
        <ele>324.38</ele>
        <time>2015-05-20T11:38:10Z</time>
      </trkpt>
      <trkpt lat="43.61893" lon="5.35514">
        <ele>323.14</ele>
        <time>2015-05-20T11:38:17Z</time>
      </trkpt>
      <trkpt lat="43.61885" lon="5.35533">
        <ele>322.59</ele>
        <time>2015-05-20T11:38:32Z</time>
      </trkpt>
      <trkpt lat="43.61883" lon="5.35541">
        <ele>322.92</ele>
        <time>2015-05-20T11:38:39Z</time>
      </trkpt>
      <trkpt lat="43.61878" lon="5.35558">
        <ele>323.05</ele>
        <time>2015-05-20T11:38:51Z</time>
      </trkpt>
      <trkpt lat="43.61872" lon="5.35582">
        <ele>323.02</ele>
        <time>2015-05-20T11:39:08Z</time>
      </trkpt>
      <trkpt lat="43.61865" lon="5.35602">
        <ele>323.02</ele>
        <time>2015-05-20T11:39:23Z</time>
      </trkpt>
      <trkpt lat="43.61862" lon="5.35618">
        <ele>323.08</ele>
        <time>2015-05-20T11:39:42Z</time>
      </trkpt>
      <trkpt lat="43.61858" lon="5.35625">
        <ele>324.12</ele>
        <time>2015-05-20T11:40:05Z</time>
      </trkpt>
      <trkpt lat="43.61857" lon="5.35637">
        <ele>323.67</ele>
        <time>2015-05-20T11:40:21Z</time>
      </trkpt>
      <trkpt lat="43.61857" lon="5.35641">
        <ele>324.35</ele>
        <time>2015-05-20T11:40:39Z</time>
      </trkpt>
      <trkpt lat="43.61857" lon="5.35649">
        <ele>324.52</ele>
        <time>2015-05-20T11:40:45Z</time>
      </trkpt>
      <trkpt lat="43.61855" lon="5.35661">
        <ele>323.7</ele>
        <time>2015-05-20T11:40:59Z</time>
      </trkpt>
      <trkpt lat="43.61853" lon="5.35674">
        <ele>324.71</ele>
        <time>2015-05-20T11:41:13Z</time>
      </trkpt>
      <trkpt lat="43.61857" lon="5.35689">
        <ele>326.22</ele>
        <time>2015-05-20T11:41:32Z</time>
      </trkpt>
      <trkpt lat="43.6186" lon="5.35691">
        <ele>325.72</ele>
        <time>2015-05-20T11:41:48Z</time>
      </trkpt>
      <trkpt lat="43.61858" lon="5.3569">
        <ele>326.01</ele>
        <time>2015-05-20T11:42:06Z</time>
      </trkpt>
      <trkpt lat="43.61857" lon="5.35688">
        <ele>326.95</ele>
        <time>2015-05-20T11:42:33Z</time>
      </trkpt>
      <trkpt lat="43.61856" lon="5.35688">
        <ele>326.9</ele>
        <time>2015-05-20T11:42:51Z</time>
      </trkpt>
      <trkpt lat="43.61854" lon="5.35704">
        <ele>326.5</ele>
        <time>2015-05-20T11:43:05Z</time>
      </trkpt>
      <trkpt lat="43.61851" lon="5.35725">
        <ele>325.92</ele>
        <time>2015-05-20T11:43:21Z</time>
      </trkpt>
      <trkpt lat="43.6185" lon="5.35728">
        <ele>325.82</ele>
        <time>2015-05-20T11:43:23Z</time>
      </trkpt>
      <trkpt lat="43.61849" lon="5.35751">
        <ele>327.19</ele>
        <time>2015-05-20T11:43:41Z</time>
      </trkpt>
      <trkpt lat="43.61848" lon="5.35763">
        <ele>328.21</ele>
        <time>2015-05-20T11:43:50Z</time>
      </trkpt>
      <trkpt lat="43.61846" lon="5.35781">
        <ele>327.03</ele>
        <time>2015-05-20T11:44:02Z</time>
      </trkpt>
      <trkpt lat="43.6184" lon="5.35802">
        <ele>327.79</ele>
        <time>2015-05-20T11:44:18Z</time>
      </trkpt>
      <trkpt lat="43.61832" lon="5.35823">
        <ele>326.76</ele>
        <time>2015-05-20T11:44:34Z</time>
      </trkpt>
      <trkpt lat="43.61825" lon="5.35842">
        <ele>326.32</ele>
        <time>2015-05-20T11:44:50Z</time>
      </trkpt>
      <trkpt lat="43.61814" lon="5.35874">
        <ele>325.98</ele>
        <time>2015-05-20T11:45:14Z</time>
      </trkpt>
      <trkpt lat="43.6181" lon="5.35895">
        <ele>326.15</ele>
        <time>2015-05-20T11:45:31Z</time>
      </trkpt>
      <trkpt lat="43.61809" lon="5.3591">
        <ele>325.42</ele>
        <time>2015-05-20T11:45:49Z</time>
      </trkpt>
      <trkpt lat="43.61804" lon="5.35932">
        <ele>325.82</ele>
        <time>2015-05-20T11:46:10Z</time>
      </trkpt>
      <trkpt lat="43.618" lon="5.35962">
        <ele>326.46</ele>
        <time>2015-05-20T11:46:35Z</time>
      </trkpt>
      <trkpt lat="43.61798" lon="5.3599">
        <ele>325.63</ele>
        <time>2015-05-20T11:46:57Z</time>
      </trkpt>
      <trkpt lat="43.61796" lon="5.36007">
        <ele>325.94</ele>
        <time>2015-05-20T11:47:12Z</time>
      </trkpt>
      <trkpt lat="43.61794" lon="5.36022">
        <ele>325.36</ele>
        <time>2015-05-20T11:47:24Z</time>
      </trkpt>
      <trkpt lat="43.61797" lon="5.36053">
        <ele>325.02</ele>
        <time>2015-05-20T11:47:46Z</time>
      </trkpt>
      <trkpt lat="43.61799" lon="5.36072">
        <ele>325.57</ele>
        <time>2015-05-20T11:48:02Z</time>
      </trkpt>
      <trkpt lat="43.618" lon="5.36096">
        <ele>326.16</ele>
        <time>2015-05-20T11:48:23Z</time>
      </trkpt>
      <trkpt lat="43.618" lon="5.36106">
        <ele>326.66</ele>
        <time>2015-05-20T11:48:42Z</time>
      </trkpt>
      <trkpt lat="43.61797" lon="5.3611">
        <ele>326.1</ele>
        <time>2015-05-20T11:49:02Z</time>
      </trkpt>
      <trkpt lat="43.61795" lon="5.36106">
        <ele>325.23</ele>
        <time>2015-05-20T11:49:19Z</time>
      </trkpt>
      <trkpt lat="43.61796" lon="5.36106">
        <ele>324.55</ele>
        <time>2015-05-20T11:49:37Z</time>
      </trkpt>
      <trkpt lat="43.61799" lon="5.36112">
        <ele>326.44</ele>
        <time>2015-05-20T11:49:55Z</time>
      </trkpt>
      <trkpt lat="43.61797" lon="5.36115">
        <ele>327.18</ele>
        <time>2015-05-20T11:50:21Z</time>
      </trkpt>
      <trkpt lat="43.61797" lon="5.36115">
        <ele>326.51</ele>
        <time>2015-05-20T11:50:35Z</time>
      </trkpt>
      <trkpt lat="43.61797" lon="5.36115">
        <ele>327.13</ele>
        <time>2015-05-20T11:50:54Z</time>
      </trkpt>
      <trkpt lat="43.61795" lon="5.36119">
        <ele>327.16</ele>
        <time>2015-05-20T11:51:18Z</time>
      </trkpt>
      <trkpt lat="43.61788" lon="5.36126">
        <ele>326.6</ele>
        <time>2015-05-20T11:51:34Z</time>
      </trkpt>
      <trkpt lat="43.61785" lon="5.36133">
        <ele>326.57</ele>
        <time>2015-05-20T11:51:40Z</time>
      </trkpt>
      <trkpt lat="43.61773" lon="5.36152">
        <ele>325.91</ele>
        <time>2015-05-20T11:51:59Z</time>
      </trkpt>
      <trkpt lat="43.61771" lon="5.36156">
        <ele>326.07</ele>
        <time>2015-05-20T11:52:04Z</time>
      </trkpt>
      <trkpt lat="43.61768" lon="5.36162">
        <ele>326.21</ele>
        <time>2015-05-20T11:52:10Z</time>
      </trkpt>
      <trkpt lat="43.61758" lon="5.36192">
        <ele>327.08</ele>
        <time>2015-05-20T11:52:35Z</time>
      </trkpt>
      <trkpt lat="43.61754" lon="5.36213">
        <ele>326.66</ele>
        <time>2015-05-20T11:52:51Z</time>
      </trkpt>
      <trkpt lat="43.61752" lon="5.36237">
        <ele>325.94</ele>
        <time>2015-05-20T11:53:10Z</time>
      </trkpt>
      <trkpt lat="43.61752" lon="5.36239">
        <ele>326.01</ele>
        <time>2015-05-20T11:53:11Z</time>
      </trkpt>
      <trkpt lat="43.61757" lon="5.36268">
        <ele>326.13</ele>
        <time>2015-05-20T11:53:32Z</time>
      </trkpt>
      <trkpt lat="43.61758" lon="5.36271">
        <ele>326.3</ele>
        <time>2015-05-20T11:53:34Z</time>
      </trkpt>
      <trkpt lat="43.61759" lon="5.36276">
        <ele>326.3</ele>
        <time>2015-05-20T11:53:38Z</time>
      </trkpt>
      <trkpt lat="43.61764" lon="5.36304">
        <ele>326.1</ele>
        <time>2015-05-20T11:54:00Z</time>
      </trkpt>
      <trkpt lat="43.6177" lon="5.36337">
        <ele>326.03</ele>
        <time>2015-05-20T11:54:23Z</time>
      </trkpt>
      <trkpt lat="43.61775" lon="5.36359">
        <ele>325.71</ele>
        <time>2015-05-20T11:54:40Z</time>
      </trkpt>
      <trkpt lat="43.61776" lon="5.3638">
        <ele>325.57</ele>
        <time>2015-05-20T11:54:58Z</time>
      </trkpt>
      <trkpt lat="43.6177" lon="5.36395">
        <ele>325.28</ele>
        <time>2015-05-20T11:55:17Z</time>
      </trkpt>
      <trkpt lat="43.6176" lon="5.3641">
        <ele>326.09</ele>
        <time>2015-05-20T11:55:38Z</time>
      </trkpt>
      <trkpt lat="43.61741" lon="5.36426">
        <ele>326.51</ele>
        <time>2015-05-20T11:55:57Z</time>
      </trkpt>
      <trkpt lat="43.6174" lon="5.36427">
        <ele>326.57</ele>
        <time>2015-05-20T11:55:58Z</time>
      </trkpt>
      <trkpt lat="43.61725" lon="5.36452">
        <ele>326.18</ele>
        <time>2015-05-20T11:56:15Z</time>
      </trkpt>
      <trkpt lat="43.61722" lon="5.36481">
        <ele>326.74</ele>
        <time>2015-05-20T11:56:35Z</time>
      </trkpt>
      <trkpt lat="43.61722" lon="5.36513">
        <ele>327.64</ele>
        <time>2015-05-20T11:56:57Z</time>
      </trkpt>
      <trkpt lat="43.61718" lon="5.36539">
        <ele>329.55</ele>
        <time>2015-05-20T11:57:17Z</time>
      </trkpt>
      <trkpt lat="43.61708" lon="5.36567">
        <ele>330.04</ele>
        <time>2015-05-20T11:57:39Z</time>
      </trkpt>
      <trkpt lat="43.61697" lon="5.36595">
        <ele>330.39</ele>
        <time>2015-05-20T11:58:02Z</time>
      </trkpt>
      <trkpt lat="43.61687" lon="5.36619">
        <ele>329.57</ele>
        <time>2015-05-20T11:58:22Z</time>
      </trkpt>
      <trkpt lat="43.61679" lon="5.36638">
        <ele>327.46</ele>
        <time>2015-05-20T11:58:37Z</time>
      </trkpt>
      <trkpt lat="43.61668" lon="5.3666">
        <ele>329.7</ele>
        <time>2015-05-20T11:58:55Z</time>
      </trkpt>
      <trkpt lat="43.61658" lon="5.36683">
        <ele>329.73</ele>
        <time>2015-05-20T11:59:13Z</time>
      </trkpt>
      <trkpt lat="43.61649" lon="5.36705">
        <ele>329.28</ele>
        <time>2015-05-20T11:59:30Z</time>
      </trkpt>
      <trkpt lat="43.61641" lon="5.36725">
        <ele>329.95</ele>
        <time>2015-05-20T11:59:46Z</time>
      </trkpt>
      <trkpt lat="43.61632" lon="5.36751">
        <ele>330.95</ele>
        <time>2015-05-20T12:00:05Z</time>
      </trkpt>
      <trkpt lat="43.61625" lon="5.36771">
        <ele>329.95</ele>
        <time>2015-05-20T12:00:20Z</time>
      </trkpt>
      <trkpt lat="43.61615" lon="5.36796">
        <ele>329.88</ele>
        <time>2015-05-20T12:00:39Z</time>
      </trkpt>
      <trkpt lat="43.61607" lon="5.3682">
        <ele>330.11</ele>
        <time>2015-05-20T12:00:57Z</time>
      </trkpt>
      <trkpt lat="43.61604" lon="5.36833">
        <ele>330.35</ele>
        <time>2015-05-20T12:01:11Z</time>
      </trkpt>
      <trkpt lat="43.61604" lon="5.36834">
        <ele>330.25</ele>
        <time>2015-05-20T12:01:13Z</time>
      </trkpt>
      <trkpt lat="43.61601" lon="5.36839">
        <ele>330.65</ele>
        <time>2015-05-20T12:01:26Z</time>
      </trkpt>
      <trkpt lat="43.61601" lon="5.36845">
        <ele>330.71</ele>
        <time>2015-05-20T12:01:53Z</time>
      </trkpt>
      <trkpt lat="43.61597" lon="5.36853">
        <ele>330.33</ele>
        <time>2015-05-20T12:02:00Z</time>
      </trkpt>
      <trkpt lat="43.61594" lon="5.36863">
        <ele>329.86</ele>
        <time>2015-05-20T12:02:08Z</time>
      </trkpt>
      <trkpt lat="43.61591" lon="5.36869">
        <ele>329.58</ele>
        <time>2015-05-20T12:02:12Z</time>
      </trkpt>
      <trkpt lat="43.61581" lon="5.36893">
        <ele>329.6</ele>
        <time>2015-05-20T12:02:30Z</time>
      </trkpt>
      <trkpt lat="43.6157" lon="5.36922">
        <ele>328.23</ele>
        <time>2015-05-20T12:02:52Z</time>
      </trkpt>
      <trkpt lat="43.61561" lon="5.36945">
        <ele>329.62</ele>
        <time>2015-05-20T12:03:09Z</time>
      </trkpt>
      <trkpt lat="43.61548" lon="5.36968">
        <ele>330.28</ele>
        <time>2015-05-20T12:03:27Z</time>
      </trkpt>
      <trkpt lat="43.61533" lon="5.3699">
        <ele>329.56</ele>
        <time>2015-05-20T12:03:45Z</time>
      </trkpt>
      <trkpt lat="43.61517" lon="5.37019">
        <ele>329.51</ele>
        <time>2015-05-20T12:04:07Z</time>
      </trkpt>
      <trkpt lat="43.61505" lon="5.37048">
        <ele>329.65</ele>
        <time>2015-05-20T12:04:26Z</time>
      </trkpt>
      <trkpt lat="43.61498" lon="5.37073">
        <ele>328.82</ele>
        <time>2015-05-20T12:04:44Z</time>
      </trkpt>
      <trkpt lat="43.6149" lon="5.37102">
        <ele>329.96</ele>
        <time>2015-05-20T12:05:05Z</time>
      </trkpt>
      <trkpt lat="43.61476" lon="5.37134">
        <ele>330.62</ele>
        <time>2015-05-20T12:05:29Z</time>
      </trkpt>
      <trkpt lat="43.61461" lon="5.37169">
        <ele>330.52</ele>
        <time>2015-05-20T12:05:54Z</time>
      </trkpt>
      <trkpt lat="43.61454" lon="5.37187">
        <ele>331.37</ele>
        <time>2015-05-20T12:06:10Z</time>
      </trkpt>
      <trkpt lat="43.61453" lon="5.3719">
        <ele>331.43</ele>
        <time>2015-05-20T12:06:23Z</time>
      </trkpt>
      <trkpt lat="43.61449" lon="5.37199">
        <ele>331.03</ele>
        <time>2015-05-20T12:06:40Z</time>
      </trkpt>
      <trkpt lat="43.61447" lon="5.372">
        <ele>331.59</ele>
        <time>2015-05-20T12:06:56Z</time>
      </trkpt>
      <trkpt lat="43.61446" lon="5.37201">
        <ele>332.08</ele>
        <time>2015-05-20T12:07:11Z</time>
      </trkpt>
      <trkpt lat="43.61446" lon="5.37203">
        <ele>331.99</ele>
        <time>2015-05-20T12:07:26Z</time>
      </trkpt>
      <trkpt lat="43.61447" lon="5.37203">
        <ele>331.23</ele>
        <time>2015-05-20T12:07:58Z</time>
      </trkpt>
      <trkpt lat="43.61446" lon="5.37202">
        <ele>331.39</ele>
        <time>2015-05-20T12:08:26Z</time>
      </trkpt>
      <trkpt lat="43.61448" lon="5.37203">
        <ele>332.21</ele>
        <time>2015-05-20T12:08:53Z</time>
      </trkpt>
      <trkpt lat="43.61447" lon="5.37202">
        <ele>332.52</ele>
        <time>2015-05-20T12:09:16Z</time>
      </trkpt>
      <trkpt lat="43.61447" lon="5.37202">
        <ele>333.34</ele>
        <time>2015-05-20T12:09:42Z</time>
      </trkpt>
      <trkpt lat="43.61446" lon="5.37202">
        <ele>332.81</ele>
        <time>2015-05-20T12:10:01Z</time>
      </trkpt>
      <trkpt lat="43.61445" lon="5.37203">
        <ele>333.2</ele>
        <time>2015-05-20T12:10:17Z</time>
      </trkpt>
      <trkpt lat="43.61441" lon="5.37201">
        <ele>332.45</ele>
        <time>2015-05-20T12:10:31Z</time>
      </trkpt>
      <trkpt lat="43.61435" lon="5.37202">
        <ele>330.96</ele>
        <time>2015-05-20T12:10:52Z</time>
      </trkpt>
      <trkpt lat="43.61432" lon="5.37203">
        <ele>331.53</ele>
        <time>2015-05-20T12:11:07Z</time>
      </trkpt>
      <trkpt lat="43.61421" lon="5.37209">
        <ele>330.89</ele>
        <time>2015-05-20T12:11:27Z</time>
      </trkpt>
      <trkpt lat="43.61406" lon="5.37213">
        <ele>330.65</ele>
        <time>2015-05-20T12:11:43Z</time>
      </trkpt>
      <trkpt lat="43.61387" lon="5.37218">
        <ele>330.07</ele>
        <time>2015-05-20T12:11:58Z</time>
      </trkpt>
      <trkpt lat="43.61373" lon="5.37216">
        <ele>329.2</ele>
        <time>2015-05-20T12:12:14Z</time>
      </trkpt>
      <trkpt lat="43.61375" lon="5.3722">
        <ele>328.48</ele>
        <time>2015-05-20T12:12:32Z</time>
      </trkpt>
      <trkpt lat="43.6137" lon="5.37219">
        <ele>328.28</ele>
        <time>2015-05-20T12:12:56Z</time>
      </trkpt>
      <trkpt lat="43.61366" lon="5.37221">
        <ele>328.02</ele>
        <time>2015-05-20T12:13:18Z</time>
      </trkpt>
      <trkpt lat="43.61368" lon="5.37217">
        <ele>328.01</ele>
        <time>2015-05-20T12:13:39Z</time>
      </trkpt>
      <trkpt lat="43.61354" lon="5.37215">
        <ele>327.12</ele>
        <time>2015-05-20T12:13:55Z</time>
      </trkpt>
      <trkpt lat="43.61336" lon="5.37218">
        <ele>325.52</ele>
        <time>2015-05-20T12:14:12Z</time>
      </trkpt>
      <trkpt lat="43.61317" lon="5.3722">
        <ele>323.98</ele>
        <time>2015-05-20T12:14:29Z</time>
      </trkpt>
      <trkpt lat="43.61304" lon="5.37217">
        <ele>323.18</ele>
        <time>2015-05-20T12:14:42Z</time>
      </trkpt>
      <trkpt lat="43.61284" lon="5.37221">
        <ele>321.32</ele>
        <time>2015-05-20T12:15:01Z</time>
      </trkpt>
      <trkpt lat="43.61263" lon="5.37227">
        <ele>321.38</ele>
        <time>2015-05-20T12:15:21Z</time>
      </trkpt>
      <trkpt lat="43.61247" lon="5.37229">
        <ele>320.7</ele>
        <time>2015-05-20T12:15:39Z</time>
      </trkpt>
      <trkpt lat="43.61228" lon="5.37228">
        <ele>321.23</ele>
        <time>2015-05-20T12:16:02Z</time>
      </trkpt>
      <trkpt lat="43.61209" lon="5.37223">
        <ele>322.18</ele>
        <time>2015-05-20T12:16:18Z</time>
      </trkpt>
      <trkpt lat="43.61191" lon="5.37224">
        <ele>323</ele>
        <time>2015-05-20T12:16:35Z</time>
      </trkpt>
      <trkpt lat="43.61173" lon="5.37235">
        <ele>322.59</ele>
        <time>2015-05-20T12:16:54Z</time>
      </trkpt>
      <trkpt lat="43.6116" lon="5.37241">
        <ele>321.25</ele>
        <time>2015-05-20T12:17:10Z</time>
      </trkpt>
      <trkpt lat="43.61157" lon="5.37243">
        <ele>321.77</ele>
        <time>2015-05-20T12:17:14Z</time>
      </trkpt>
      <trkpt lat="43.61153" lon="5.37244">
        <ele>321.82</ele>
        <time>2015-05-20T12:17:17Z</time>
      </trkpt>
      <trkpt lat="43.61138" lon="5.37247">
        <ele>322.47</ele>
        <time>2015-05-20T12:17:32Z</time>
      </trkpt>
      <trkpt lat="43.61128" lon="5.37249">
        <ele>322.27</ele>
        <time>2015-05-20T12:17:42Z</time>
      </trkpt>
      <trkpt lat="43.61126" lon="5.3725">
        <ele>322.41</ele>
        <time>2015-05-20T12:17:44Z</time>
      </trkpt>
      <trkpt lat="43.6112" lon="5.3725">
        <ele>322.62</ele>
        <time>2015-05-20T12:17:49Z</time>
      </trkpt>
      <trkpt lat="43.611" lon="5.37255">
        <ele>323</ele>
        <time>2015-05-20T12:18:06Z</time>
      </trkpt>
      <trkpt lat="43.61083" lon="5.37262">
        <ele>322.65</ele>
        <time>2015-05-20T12:18:22Z</time>
      </trkpt>
      <trkpt lat="43.61064" lon="5.3727">
        <ele>323.29</ele>
        <time>2015-05-20T12:18:40Z</time>
      </trkpt>
      <trkpt lat="43.6104" lon="5.37278">
        <ele>321.07</ele>
        <time>2015-05-20T12:19:03Z</time>
      </trkpt>
      <trkpt lat="43.61023" lon="5.37284">
        <ele>322.15</ele>
        <time>2015-05-20T12:19:20Z</time>
      </trkpt>
      <trkpt lat="43.61003" lon="5.37291">
        <ele>320.99</ele>
        <time>2015-05-20T12:19:39Z</time>
      </trkpt>
      <trkpt lat="43.60978" lon="5.37298">
        <ele>321.89</ele>
        <time>2015-05-20T12:20:02Z</time>
      </trkpt>
      <trkpt lat="43.60957" lon="5.37302">
        <ele>321.95</ele>
        <time>2015-05-20T12:20:22Z</time>
      </trkpt>
      <trkpt lat="43.60937" lon="5.37302">
        <ele>321.21</ele>
        <time>2015-05-20T12:20:42Z</time>
      </trkpt>
      <trkpt lat="43.60915" lon="5.37304">
        <ele>320.89</ele>
        <time>2015-05-20T12:21:01Z</time>
      </trkpt>
      <trkpt lat="43.60902" lon="5.37304">
        <ele>320.2</ele>
        <time>2015-05-20T12:21:14Z</time>
      </trkpt>
      <trkpt lat="43.60885" lon="5.37301">
        <ele>319.62</ele>
        <time>2015-05-20T12:21:32Z</time>
      </trkpt>
      <trkpt lat="43.60867" lon="5.37304">
        <ele>319.36</ele>
        <time>2015-05-20T12:21:47Z</time>
      </trkpt>
      <trkpt lat="43.60847" lon="5.37315">
        <ele>318.82</ele>
        <time>2015-05-20T12:22:05Z</time>
      </trkpt>
      <trkpt lat="43.60827" lon="5.3732">
        <ele>318.1</ele>
        <time>2015-05-20T12:22:24Z</time>
      </trkpt>
      <trkpt lat="43.60811" lon="5.37323">
        <ele>317.37</ele>
        <time>2015-05-20T12:22:40Z</time>
      </trkpt>
      <trkpt lat="43.60793" lon="5.37324">
        <ele>317.05</ele>
        <time>2015-05-20T12:22:56Z</time>
      </trkpt>
      <trkpt lat="43.60773" lon="5.37319">
        <ele>317.49</ele>
        <time>2015-05-20T12:23:18Z</time>
      </trkpt>
      <trkpt lat="43.60771" lon="5.37319">
        <ele>317.42</ele>
        <time>2015-05-20T12:23:20Z</time>
      </trkpt>
      <trkpt lat="43.60768" lon="5.37318">
        <ele>317.19</ele>
        <time>2015-05-20T12:23:23Z</time>
      </trkpt>
      <trkpt lat="43.60749" lon="5.37316">
        <ele>316.82</ele>
        <time>2015-05-20T12:23:39Z</time>
      </trkpt>
      <trkpt lat="43.60733" lon="5.37316">
        <ele>315.98</ele>
        <time>2015-05-20T12:23:54Z</time>
      </trkpt>
      <trkpt lat="43.60726" lon="5.37314">
        <ele>316.3</ele>
        <time>2015-05-20T12:24:02Z</time>
      </trkpt>
      <trkpt lat="43.60718" lon="5.37314">
        <ele>316</ele>
        <time>2015-05-20T12:24:09Z</time>
      </trkpt>
      <trkpt lat="43.60696" lon="5.37309">
        <ele>315.34</ele>
        <time>2015-05-20T12:24:30Z</time>
      </trkpt>
      <trkpt lat="43.60694" lon="5.37309">
        <ele>315.34</ele>
        <time>2015-05-20T12:24:32Z</time>
      </trkpt>
      <trkpt lat="43.60687" lon="5.37309">
        <ele>315.34</ele>
        <time>2015-05-20T12:24:39Z</time>
      </trkpt>
      <trkpt lat="43.60666" lon="5.37313">
        <ele>315.09</ele>
        <time>2015-05-20T12:24:57Z</time>
      </trkpt>
      <trkpt lat="43.60646" lon="5.37319">
        <ele>313.7</ele>
        <time>2015-05-20T12:25:14Z</time>
      </trkpt>
      <trkpt lat="43.60629" lon="5.37322">
        <ele>313.15</ele>
        <time>2015-05-20T12:25:30Z</time>
      </trkpt>
      <trkpt lat="43.60612" lon="5.37327">
        <ele>313.65</ele>
        <time>2015-05-20T12:25:45Z</time>
      </trkpt>
      <trkpt lat="43.60598" lon="5.3733">
        <ele>313.11</ele>
        <time>2015-05-20T12:25:59Z</time>
      </trkpt>
      <trkpt lat="43.60595" lon="5.3733">
        <ele>312.48</ele>
        <time>2015-05-20T12:26:02Z</time>
      </trkpt>
      <trkpt lat="43.60592" lon="5.37329">
        <ele>312.11</ele>
        <time>2015-05-20T12:26:05Z</time>
      </trkpt>
      <trkpt lat="43.60574" lon="5.37335">
        <ele>312.61</ele>
        <time>2015-05-20T12:26:21Z</time>
      </trkpt>
      <trkpt lat="43.60569" lon="5.37341">
        <ele>312.81</ele>
        <time>2015-05-20T12:26:26Z</time>
      </trkpt>
      <trkpt lat="43.6056" lon="5.37351">
        <ele>312.8</ele>
        <time>2015-05-20T12:26:37Z</time>
      </trkpt>
      <trkpt lat="43.60551" lon="5.37361">
        <ele>312.49</ele>
        <time>2015-05-20T12:26:54Z</time>
      </trkpt>
      <trkpt lat="43.60546" lon="5.37377">
        <ele>312.84</ele>
        <time>2015-05-20T12:27:05Z</time>
      </trkpt>
      <trkpt lat="43.60545" lon="5.37382">
        <ele>313.04</ele>
        <time>2015-05-20T12:27:22Z</time>
      </trkpt>
      <trkpt lat="43.60544" lon="5.37379">
        <ele>312.31</ele>
        <time>2015-05-20T12:27:35Z</time>
      </trkpt>
      <trkpt lat="43.6054" lon="5.37381">
        <ele>312.27</ele>
        <time>2015-05-20T12:27:47Z</time>
      </trkpt>
      <trkpt lat="43.60541" lon="5.37381">
        <ele>312.07</ele>
        <time>2015-05-20T12:28:02Z</time>
      </trkpt>
      <trkpt lat="43.60541" lon="5.37382">
        <ele>311.24</ele>
        <time>2015-05-20T12:28:24Z</time>
      </trkpt>
      <trkpt lat="43.60541" lon="5.37379">
        <ele>311.26</ele>
        <time>2015-05-20T12:28:43Z</time>
      </trkpt>
      <trkpt lat="43.6054" lon="5.37373">
        <ele>312.37</ele>
        <time>2015-05-20T12:28:58Z</time>
      </trkpt>
      <trkpt lat="43.6054" lon="5.37373">
        <ele>312.03</ele>
        <time>2015-05-20T12:29:18Z</time>
      </trkpt>
      <trkpt lat="43.6054" lon="5.37372">
        <ele>311.73</ele>
        <time>2015-05-20T12:29:37Z</time>
      </trkpt>
      <trkpt lat="43.60539" lon="5.37368">
        <ele>311.93</ele>
        <time>2015-05-20T12:30:02Z</time>
      </trkpt>
      <trkpt lat="43.60541" lon="5.37356">
        <ele>311.62</ele>
        <time>2015-05-20T12:30:17Z</time>
      </trkpt>
      <trkpt lat="43.60543" lon="5.37352">
        <ele>311.27</ele>
        <time>2015-05-20T12:30:32Z</time>
      </trkpt>
      <trkpt lat="43.60541" lon="5.37352">
        <ele>311.85</ele>
        <time>2015-05-20T12:31:00Z</time>
      </trkpt>
      <trkpt lat="43.60539" lon="5.37352">
        <ele>311.88</ele>
        <time>2015-05-20T12:31:52Z</time>
      </trkpt>
      <trkpt lat="43.60539" lon="5.3735">
        <ele>311.37</ele>
        <time>2015-05-20T12:32:59Z</time>
      </trkpt>
      <trkpt lat="43.6054" lon="5.37351">
        <ele>310.87</ele>
        <time>2015-05-20T12:33:30Z</time>
      </trkpt>
      <trkpt lat="43.6054" lon="5.3735">
        <ele>311.43</ele>
        <time>2015-05-20T12:34:04Z</time>
      </trkpt>
      <trkpt lat="43.60541" lon="5.37352">
        <ele>311.81</ele>
        <time>2015-05-20T12:34:22Z</time>
      </trkpt>
      <trkpt lat="43.60539" lon="5.37354">
        <ele>312.47</ele>
        <time>2015-05-20T12:34:53Z</time>
      </trkpt>
      <trkpt lat="43.60529" lon="5.37346">
        <ele>311.22</ele>
        <time>2015-05-20T12:35:10Z</time>
      </trkpt>
      <trkpt lat="43.60514" lon="5.37342">
        <ele>310.73</ele>
        <time>2015-05-20T12:35:26Z</time>
      </trkpt>
      <trkpt lat="43.6049" lon="5.37344">
        <ele>309.79</ele>
        <time>2015-05-20T12:35:48Z</time>
      </trkpt>
      <trkpt lat="43.60471" lon="5.37344">
        <ele>310.28</ele>
        <time>2015-05-20T12:36:08Z</time>
      </trkpt>
      <trkpt lat="43.6046" lon="5.37343">
        <ele>309.04</ele>
        <time>2015-05-20T12:36:22Z</time>
      </trkpt>
      <trkpt lat="43.60446" lon="5.37339">
        <ele>308.93</ele>
        <time>2015-05-20T12:36:38Z</time>
      </trkpt>
      <trkpt lat="43.60424" lon="5.37343">
        <ele>307.76</ele>
        <time>2015-05-20T12:37:01Z</time>
      </trkpt>
      <trkpt lat="43.60402" lon="5.37354">
        <ele>309.2</ele>
        <time>2015-05-20T12:37:24Z</time>
      </trkpt>
      <trkpt lat="43.60388" lon="5.37361">
        <ele>307.87</ele>
        <time>2015-05-20T12:37:43Z</time>
      </trkpt>
      <trkpt lat="43.60384" lon="5.37366">
        <ele>306.52</ele>
        <time>2015-05-20T12:38:02Z</time>
      </trkpt>
      <trkpt lat="43.60367" lon="5.37378">
        <ele>307.27</ele>
        <time>2015-05-20T12:38:21Z</time>
      </trkpt>
      <trkpt lat="43.60341" lon="5.37369">
        <ele>305.74</ele>
        <time>2015-05-20T12:38:46Z</time>
      </trkpt>
      <trkpt lat="43.6032" lon="5.37356">
        <ele>305.72</ele>
        <time>2015-05-20T12:39:09Z</time>
      </trkpt>
      <trkpt lat="43.60298" lon="5.37344">
        <ele>305.17</ele>
        <time>2015-05-20T12:39:31Z</time>
      </trkpt>
      <trkpt lat="43.60282" lon="5.37333">
        <ele>304.65</ele>
        <time>2015-05-20T12:39:49Z</time>
      </trkpt>
      <trkpt lat="43.60267" lon="5.37324">
        <ele>303.8</ele>
        <time>2015-05-20T12:40:06Z</time>
      </trkpt>
      <trkpt lat="43.60252" lon="5.37315">
        <ele>302.88</ele>
        <time>2015-05-20T12:40:23Z</time>
      </trkpt>
      <trkpt lat="43.60238" lon="5.37304">
        <ele>302.27</ele>
        <time>2015-05-20T12:40:38Z</time>
      </trkpt>
      <trkpt lat="43.60219" lon="5.37291">
        <ele>300.76</ele>
        <time>2015-05-20T12:40:59Z</time>
      </trkpt>
      <trkpt lat="43.60203" lon="5.37279">
        <ele>300.57</ele>
        <time>2015-05-20T12:41:17Z</time>
      </trkpt>
      <trkpt lat="43.60189" lon="5.3727">
        <ele>299.88</ele>
        <time>2015-05-20T12:41:32Z</time>
      </trkpt>
      <trkpt lat="43.60173" lon="5.37258">
        <ele>299.69</ele>
        <time>2015-05-20T12:41:49Z</time>
      </trkpt>
      <trkpt lat="43.60162" lon="5.37247">
        <ele>299.61</ele>
        <time>2015-05-20T12:42:05Z</time>
      </trkpt>
      <trkpt lat="43.60141" lon="5.37234">
        <ele>299.18</ele>
        <time>2015-05-20T12:42:26Z</time>
      </trkpt>
      <trkpt lat="43.60123" lon="5.37223">
        <ele>298.25</ele>
        <time>2015-05-20T12:42:42Z</time>
      </trkpt>
      <trkpt lat="43.60123" lon="5.37216">
        <ele>297.77</ele>
        <time>2015-05-20T12:42:54Z</time>
      </trkpt>
      <trkpt lat="43.6012" lon="5.37216">
        <ele>297.69</ele>
        <time>2015-05-20T12:43:12Z</time>
      </trkpt>
      <trkpt lat="43.60115" lon="5.37215">
        <ele>298.19</ele>
        <time>2015-05-20T12:43:17Z</time>
      </trkpt>
      <trkpt lat="43.60097" lon="5.37219">
        <ele>297.85</ele>
        <time>2015-05-20T12:43:33Z</time>
      </trkpt>
      <trkpt lat="43.60075" lon="5.3722">
        <ele>296.91</ele>
        <time>2015-05-20T12:43:51Z</time>
      </trkpt>
      <trkpt lat="43.60055" lon="5.37222">
        <ele>296.68</ele>
        <time>2015-05-20T12:44:08Z</time>
      </trkpt>
      <trkpt lat="43.60038" lon="5.37222">
        <ele>296.59</ele>
        <time>2015-05-20T12:44:21Z</time>
      </trkpt>
      <trkpt lat="43.60032" lon="5.37223">
        <ele>296.68</ele>
        <time>2015-05-20T12:44:31Z</time>
      </trkpt>
      <trkpt lat="43.60012" lon="5.37224">
        <ele>295.82</ele>
        <time>2015-05-20T12:44:48Z</time>
      </trkpt>
      <trkpt lat="43.59989" lon="5.37227">
        <ele>296.07</ele>
        <time>2015-05-20T12:45:05Z</time>
      </trkpt>
      <trkpt lat="43.5997" lon="5.37228">
        <ele>296.18</ele>
        <time>2015-05-20T12:45:18Z</time>
      </trkpt>
      <trkpt lat="43.59969" lon="5.37226">
        <ele>296.07</ele>
        <time>2015-05-20T12:45:22Z</time>
      </trkpt>
      <trkpt lat="43.59963" lon="5.37227">
        <ele>296.04</ele>
        <time>2015-05-20T12:45:26Z</time>
      </trkpt>
      <trkpt lat="43.59941" lon="5.37219">
        <ele>295.55</ele>
        <time>2015-05-20T12:45:44Z</time>
      </trkpt>
      <trkpt lat="43.59926" lon="5.37208">
        <ele>295.76</ele>
        <time>2015-05-20T12:45:59Z</time>
      </trkpt>
      <trkpt lat="43.59911" lon="5.37197">
        <ele>295.23</ele>
        <time>2015-05-20T12:46:15Z</time>
      </trkpt>
      <trkpt lat="43.59898" lon="5.37197">
        <ele>294.1</ele>
        <time>2015-05-20T12:46:32Z</time>
      </trkpt>
      <trkpt lat="43.59884" lon="5.37207">
        <ele>293.97</ele>
        <time>2015-05-20T12:46:50Z</time>
      </trkpt>
      <trkpt lat="43.59882" lon="5.3721">
        <ele>294.07</ele>
        <time>2015-05-20T12:46:52Z</time>
      </trkpt>
      <trkpt lat="43.5988" lon="5.37215">
        <ele>294.03</ele>
        <time>2015-05-20T12:47:07Z</time>
      </trkpt>
      <trkpt lat="43.5988" lon="5.37214">
        <ele>298.76</ele>
        <time>2015-05-20T12:47:15Z</time>
      </trkpt>
    </trkseg>
  </trk>
</gpx>